Check out our new PWSWeather beta!
PWSweather.com
Personal Weather Stations
Station Observations
MDTECH
White Bluff, TN 37187

White Bluff, TN 37187

Lat: 36.111655, Lon: -87.214046

Elevation: 817

Station Type: Acu-Right 1035

http://mdtech.tech

Latest ConditionsUpdated 12:00:05 PM CST Monday, Feb 24, 2020
Currently Today's Max Today's Min Today's Average
Temperature 45.9°F7.7°C 45.9°F7.7°C 41.2°F5.1°C 42.4°F5.8°C
Dew Point 45.6°F7.6°C 45.6°F7.6°C 40.4°F4.7°C 42.1°F5.6°C
Winds 14.5 mph ESE23.3 kmh ESE 14.5 mph -23.3 kmh - - 1.6 mph 2.6 kmh
Wind Gusts 14.5 mph23.3 kmh 14.5 mph23.3 kmh - -
Humidity 99% 99% 95% 99%
Pressure 29.82 in1009.8 mb 30.06 in1017.9 mb 29.81 in1009.5 mb -
Precipitation - 0.85 in21.6 mm - -
Hour Temp Dew Point Humidity Winds Wind Gusts Pressure Precip Precip Rate Daily Precip Total
12:00 PM 45.9°F7.7°C 45.6°F7.6°C 99% 14.5 mph ESE23.3 kmh ESE 14.5 mph23.3 kmh 29.82 in1009.8 mb 0.17 in4.3 mm 0.01 in0.3 mm 0.85 in21.6 mm
11:59 AM 45.9°F7.7°C 45.6°F7.6°C 99% 9.4 mph S15.1 kmh S 10.4 mph16.7 kmh 29.82 in1009.8 mb 0.16 in4.1 mm 0.00 in0.0 mm 0.84 in21.3 mm
11:58 AM 45.9°F7.7°C 45.6°F7.6°C 99% 5.3 mph ESE8.5 kmh ESE 10.4 mph16.7 kmh 29.82 in1009.8 mb 0.16 in4.1 mm 0.00 in0.0 mm 0.84 in21.3 mm
11:57 AM 45.9°F7.7°C 45.6°F7.6°C 99% 6.8 mph E10.9 kmh E 10.4 mph16.7 kmh 29.82 in1009.8 mb 0.16 in4.1 mm 0.60 in15.2 mm 0.84 in21.3 mm
11:56 AM 45.9°F7.7°C 45.6°F7.6°C 99% 5.8 mph SSE9.3 kmh SSE 10.4 mph16.7 kmh 29.82 in1009.8 mb 0.15 in3.8 mm 0.60 in15.2 mm 0.83 in21.1 mm
11:55 AM 45.9°F7.7°C 45.6°F7.6°C 99% 6.3 mph SSE10.1 kmh SSE 10.4 mph16.7 kmh 29.82 in1009.8 mb 0.14 in3.6 mm 0.00 in0.0 mm 0.82 in20.8 mm
11:54 AM 45.9°F7.7°C 45.6°F7.6°C 99% 4.2 mph SSW6.8 kmh SSW 10.9 mph17.5 kmh 29.82 in1009.8 mb 0.14 in3.6 mm 0.00 in0.0 mm 0.82 in20.8 mm
11:53 AM 45.9°F7.7°C 45.6°F7.6°C 99% 6.3 mph ESE10.1 kmh ESE 10.9 mph17.5 kmh 29.82 in1009.8 mb 0.14 in3.6 mm 1.20 in30.5 mm 0.82 in20.8 mm
11:52 AM 45.9°F7.7°C 45.6°F7.6°C 99% 6.8 mph S10.9 kmh S 10.9 mph17.5 kmh 29.82 in1009.8 mb 0.12 in3.0 mm 0.60 in15.2 mm 0.80 in20.3 mm
11:51 AM 45.9°F7.7°C 45.6°F7.6°C 99% 3.7 mph S6.0 kmh S 11.9 mph19.2 kmh 29.82 in1009.8 mb 0.11 in2.8 mm 0.60 in15.2 mm 0.79 in20.1 mm
11:50 AM 45.9°F7.7°C 45.6°F7.6°C 99% 10.4 mph SSE16.7 kmh SSE 11.9 mph19.2 kmh 29.82 in1009.8 mb 0.10 in2.5 mm 0.00 in0.0 mm 0.78 in19.8 mm
11:49 AM 45.9°F7.7°C 45.6°F7.6°C 99% 6.8 mph SSE10.9 kmh SSE 11.9 mph19.2 kmh 29.82 in1009.8 mb 0.10 in2.5 mm 0.00 in0.0 mm 0.78 in19.8 mm
11:48 AM 45.9°F7.7°C 45.6°F7.6°C 99% 5.8 mph N9.3 kmh N 11.9 mph19.2 kmh 29.82 in1009.8 mb 0.10 in2.5 mm 0.00 in0.0 mm 0.78 in19.8 mm
11:47 AM 45.9°F7.7°C 45.6°F7.6°C 99% 2.2 mph N3.5 kmh N 11.9 mph19.2 kmh 29.82 in1009.8 mb 0.10 in2.5 mm 0.00 in0.0 mm 0.78 in19.8 mm
11:46 AM 45.9°F7.7°C 45.6°F7.6°C 99% 8.3 mph SSE13.4 kmh SSE 11.9 mph19.2 kmh 29.82 in1009.8 mb 0.10 in2.5 mm 0.00 in0.0 mm 0.78 in19.8 mm
11:45 AM 45.9°F7.7°C 45.6°F7.6°C 99% 7.3 mph S11.7 kmh S 11.9 mph19.2 kmh 29.82 in1009.8 mb 0.10 in2.5 mm 0.00 in0.0 mm 0.78 in19.8 mm
11:44 AM 45.9°F7.7°C 45.6°F7.6°C 99% 5.8 mph S9.3 kmh S 11.9 mph19.2 kmh 29.82 in1009.8 mb 0.11 in2.8 mm 0.00 in0.0 mm 0.78 in19.8 mm
11:43 AM 45.7°F7.6°C 45.4°F7.4°C 99% 6.8 mph SSW10.9 kmh SSW 11.9 mph19.2 kmh 29.82 in1009.8 mb 0.11 in2.8 mm 0.00 in0.0 mm 0.78 in19.8 mm
11:42 AM 45.7°F7.6°C 45.4°F7.4°C 99% 8.9 mph SSE14.3 kmh SSE 11.9 mph19.2 kmh 29.82 in1009.8 mb 0.12 in3.0 mm 0.00 in0.0 mm 0.78 in19.8 mm
11:41 AM 45.7°F7.6°C 45.4°F7.4°C 99% 4.7 mph SSE7.6 kmh SSE 7.3 mph11.7 kmh 29.82 in1009.8 mb 0.12 in3.0 mm 0.00 in0.0 mm 0.78 in19.8 mm
11:40 AM 45.7°F7.6°C 45.4°F7.4°C 99% 4.2 mph SSE6.8 kmh SSE 7.3 mph11.7 kmh 29.82 in1009.8 mb 0.13 in3.3 mm 0.00 in0.0 mm 0.78 in19.8 mm
11:39 AM 45.7°F7.6°C 45.4°F7.4°C 99% 6.8 mph SSE10.9 kmh SSE 7.3 mph11.7 kmh 29.82 in1009.8 mb 0.14 in3.6 mm 0.00 in0.0 mm 0.78 in19.8 mm
11:38 AM 45.7°F7.6°C 45.4°F7.4°C 99% 4.2 mph S6.8 kmh S 7.3 mph11.7 kmh 29.82 in1009.8 mb 0.14 in3.6 mm 0.00 in0.0 mm 0.78 in19.8 mm
11:37 AM 45.7°F7.6°C 45.4°F7.4°C 99% 5.3 mph S8.5 kmh S 7.3 mph11.7 kmh 29.82 in1009.8 mb 0.14 in3.6 mm 0.00 in0.0 mm 0.78 in19.8 mm
11:36 AM 45.7°F7.6°C 45.4°F7.4°C 99% 1.7 mph ESE2.7 kmh ESE 7.3 mph11.7 kmh 29.82 in1009.8 mb 0.14 in3.6 mm 0.00 in0.0 mm 0.78 in19.8 mm
11:35 AM 45.5°F7.5°C 45.2°F7.3°C 99% 4.2 mph WSW6.8 kmh WSW 7.3 mph11.7 kmh 29.82 in1009.8 mb 0.16 in4.1 mm 0.00 in0.0 mm 0.78 in19.8 mm
11:34 AM 45.5°F7.5°C 45.2°F7.3°C 99% 7.3 mph SE11.7 kmh SE 9.4 mph15.1 kmh 29.82 in1009.8 mb 0.16 in4.1 mm 0.00 in0.0 mm 0.78 in19.8 mm
11:33 AM 45.5°F7.5°C 45.2°F7.3°C 99% 4.7 mph S7.6 kmh S 9.4 mph15.1 kmh 29.82 in1009.8 mb 0.16 in4.1 mm 0.00 in0.0 mm 0.78 in19.8 mm
11:32 AM 45.5°F7.5°C 45.2°F7.3°C 99% 5.3 mph ESE8.5 kmh ESE 9.9 mph15.9 kmh 29.82 in1009.8 mb 0.16 in4.1 mm 0.00 in0.0 mm 0.78 in19.8 mm
11:31 AM 45.5°F7.5°C 45.2°F7.3°C 99% 3.7 mph SW6.0 kmh SW 10.9 mph17.5 kmh 29.82 in1009.8 mb 0.16 in4.1 mm 0.00 in0.0 mm 0.78 in19.8 mm
11:30 AM 45.5°F7.5°C 45.2°F7.3°C 99% 4.2 mph SSW6.8 kmh SSW 10.9 mph17.5 kmh 29.82 in1009.8 mb 0.16 in4.1 mm 0.00 in0.0 mm 0.78 in19.8 mm
11:29 AM 45.3°F7.4°C 45.1°F7.3°C 99% 3.7 mph W6.0 kmh W 10.9 mph17.5 kmh 29.81 in1009.5 mb 0.16 in4.1 mm 0.00 in0.0 mm 0.78 in19.8 mm
11:28 AM 45.3°F7.4°C 45.1°F7.3°C 99% 3.7 mph ESE6.0 kmh ESE 10.9 mph17.5 kmh 29.81 in1009.5 mb 0.16 in4.1 mm 0.00 in0.0 mm 0.78 in19.8 mm
11:27 AM 45.3°F7.4°C 45.1°F7.3°C 99% 2.7 mph S4.3 kmh S 10.9 mph17.5 kmh 29.81 in1009.5 mb 0.16 in4.1 mm 0.00 in0.0 mm 0.78 in19.8 mm
11:26 AM 45.3°F7.4°C 45.1°F7.3°C 99% 4.2 mph S6.8 kmh S 10.9 mph17.5 kmh 29.81 in1009.5 mb 0.16 in4.1 mm 0.00 in0.0 mm 0.78 in19.8 mm
11:25 AM 45.1°F7.3°C 44.9°F7.2°C 99% 5.8 mph SSE9.3 kmh SSE 10.9 mph17.5 kmh 29.81 in1009.5 mb 0.16 in4.1 mm 0.00 in0.0 mm 0.78 in19.8 mm
11:24 AM 45.1°F7.3°C 44.9°F7.2°C 99% 3.2 mph ESE5.1 kmh ESE 10.9 mph17.5 kmh 29.81 in1009.5 mb 0.16 in4.1 mm 0.60 in15.2 mm 0.78 in19.8 mm
11:23 AM 45.1°F7.3°C 44.9°F7.2°C 99% 5.3 mph S8.5 kmh S 10.9 mph17.5 kmh 29.81 in1009.5 mb 0.15 in3.8 mm 0.60 in15.2 mm 0.77 in19.6 mm
11:22 AM 45.1°F7.3°C 44.9°F7.2°C 99% 3.7 mph S6.0 kmh S 10.9 mph17.5 kmh 29.81 in1009.5 mb 0.14 in3.6 mm 0.00 in0.0 mm 0.76 in19.3 mm
11:21 AM 45.0°F7.2°C 44.7°F7.1°C 99% 10.9 mph SSW17.5 kmh SSW 10.9 mph17.5 kmh 29.81 in1009.5 mb 0.14 in3.6 mm 0.00 in0.0 mm 0.76 in19.3 mm
11:20 AM 45.0°F7.2°C 44.7°F7.1°C 99% 4.2 mph ESE6.8 kmh ESE 8.9 mph14.3 kmh 29.81 in1009.5 mb 0.14 in3.6 mm 0.60 in15.2 mm 0.76 in19.3 mm
11:19 AM 44.8°F7.1°C 44.5°F6.9°C 99% 8.3 mph ESE13.4 kmh ESE 8.9 mph14.3 kmh 29.81 in1009.5 mb 0.13 in3.3 mm 0.60 in15.2 mm 0.75 in19.1 mm
11:18 AM 44.8°F7.1°C 44.5°F6.9°C 99% 2.2 mph SSE3.5 kmh SSE 8.9 mph14.3 kmh 29.81 in1009.5 mb 0.12 in3.0 mm 0.00 in0.0 mm 0.74 in18.8 mm
11:17 AM 44.8°F7.1°C 44.5°F6.9°C 99% 7.3 mph SW11.7 kmh SW 8.9 mph14.3 kmh 29.88 in1011.9 mb 0.12 in3.0 mm 0.00 in0.0 mm 0.74 in18.8 mm
11:16 AM 44.8°F7.1°C 44.5°F6.9°C 99% 5.8 mph ESE9.3 kmh ESE 8.9 mph14.3 kmh 29.88 in1011.9 mb 0.12 in3.0 mm 0.60 in15.2 mm 0.74 in18.8 mm
11:15 AM 44.8°F7.1°C 44.5°F6.9°C 99% 3.7 mph ESE6.0 kmh ESE 8.9 mph14.3 kmh 29.88 in1011.9 mb 0.11 in2.8 mm 0.60 in15.2 mm 0.73 in18.5 mm
11:14 AM 44.8°F7.1°C 44.5°F6.9°C 99% 5.8 mph ESE9.3 kmh ESE 8.9 mph14.3 kmh 29.88 in1011.9 mb 0.10 in2.5 mm 0.00 in0.0 mm 0.72 in18.3 mm
11:13 AM 44.8°F7.1°C 44.5°F6.9°C 99% 1.7 mph W2.7 kmh W 8.9 mph14.3 kmh 29.88 in1011.9 mb 0.10 in2.5 mm 0.00 in0.0 mm 0.72 in18.3 mm
11:12 AM 44.8°F7.1°C 44.5°F6.9°C 99% 4.2 mph SSE6.8 kmh SSE 8.9 mph14.3 kmh 29.88 in1011.9 mb 0.10 in2.5 mm 0.60 in15.2 mm 0.72 in18.3 mm
11:11 AM 44.8°F7.1°C 44.5°F6.9°C 99% 6.3 mph ESE10.1 kmh ESE 8.9 mph14.3 kmh 29.88 in1011.9 mb 0.09 in2.3 mm 0.60 in15.2 mm 0.71 in18.0 mm
11:10 AM 44.8°F7.1°C 44.5°F6.9°C 99% 5.8 mph SSW9.3 kmh SSW 8.3 mph13.4 kmh 29.88 in1011.9 mb 0.08 in2.0 mm 0.00 in0.0 mm 0.70 in17.8 mm
11:09 AM 44.8°F7.1°C 44.5°F6.9°C 99% 8.3 mph ESE13.4 kmh ESE 8.3 mph13.4 kmh 29.88 in1011.9 mb 0.08 in2.0 mm 0.00 in0.0 mm 0.70 in17.8 mm
11:08 AM 44.8°F7.1°C 44.5°F6.9°C 99% 4.2 mph ESE6.8 kmh ESE 6.8 mph10.9 kmh 29.88 in1011.9 mb 0.08 in2.0 mm 1.20 in30.5 mm 0.70 in17.8 mm
11:07 AM 44.8°F7.1°C 44.5°F6.9°C 99% 3.7 mph S6.0 kmh S 6.8 mph10.9 kmh 29.88 in1011.9 mb 0.06 in1.5 mm 0.00 in0.0 mm 0.68 in17.3 mm
11:06 AM 44.8°F7.1°C 44.5°F6.9°C 99% 4.7 mph S7.6 kmh S 6.8 mph10.9 kmh 29.88 in1011.9 mb 0.06 in1.5 mm 0.00 in0.0 mm 0.68 in17.3 mm
11:05 AM 44.8°F7.1°C 44.5°F6.9°C 99% 2.7 mph S4.3 kmh S 6.8 mph10.9 kmh 29.86 in1011.2 mb 0.06 in1.5 mm 0.00 in0.0 mm 0.68 in17.3 mm
11:04 AM 44.8°F7.1°C 44.5°F6.9°C 99% 1.1 mph SW1.8 kmh SW 6.8 mph10.9 kmh 29.86 in1011.2 mb 0.06 in1.5 mm 0.00 in0.0 mm 0.68 in17.3 mm
11:03 AM 44.8°F7.1°C 44.5°F6.9°C 99% 2.7 mph W4.3 kmh W 6.8 mph10.9 kmh 29.86 in1011.2 mb 0.06 in1.5 mm 0.00 in0.0 mm 0.68 in17.3 mm
11:02 AM 44.8°F7.1°C 44.5°F6.9°C 99% 4.2 mph SW6.8 kmh SW 6.8 mph10.9 kmh 29.86 in1011.2 mb 0.06 in1.5 mm 0.00 in0.0 mm 0.68 in17.3 mm
11:01 AM 44.8°F7.1°C 44.5°F6.9°C 99% 6.8 mph SSE10.9 kmh SSE 6.8 mph10.9 kmh 29.86 in1011.2 mb 0.06 in1.5 mm 0.00 in0.0 mm 0.68 in17.3 mm
11:00 AM 44.8°F7.1°C 44.5°F6.9°C 99% 3.7 mph WSW6.0 kmh WSW 7.3 mph11.7 kmh 29.86 in1011.2 mb 0.06 in1.5 mm 0.00 in0.0 mm 0.68 in17.3 mm
10:59 AM 44.6°F7.0°C 44.3°F6.8°C 99% 6.3 mph ESE10.1 kmh ESE 7.3 mph11.7 kmh 29.86 in1011.2 mb 0.06 in1.5 mm 0.00 in0.0 mm 0.68 in17.3 mm
10:58 AM 44.6°F7.0°C 44.3°F6.8°C 99% 5.3 mph SSE8.5 kmh SSE 7.3 mph11.7 kmh 29.86 in1011.2 mb 0.06 in1.5 mm 0.00 in0.0 mm 0.68 in17.3 mm
10:57 AM 44.6°F7.0°C 44.3°F6.8°C 99% 1.7 mph SE2.7 kmh SE 8.3 mph13.4 kmh 29.86 in1011.2 mb 0.06 in1.5 mm 0.00 in0.0 mm 0.68 in17.3 mm
10:56 AM 44.6°F7.0°C 44.3°F6.8°C 99% 5.3 mph SSW8.5 kmh SSW 8.3 mph13.4 kmh 29.86 in1011.2 mb 0.06 in1.5 mm 0.00 in0.0 mm 0.68 in17.3 mm
10:55 AM 44.6°F7.0°C 44.3°F6.8°C 99% 3.7 mph S6.0 kmh S 8.3 mph13.4 kmh 29.86 in1011.2 mb 0.06 in1.5 mm 0.00 in0.0 mm 0.68 in17.3 mm
10:54 AM 44.6°F7.0°C 44.3°F6.8°C 99% 4.2 mph SSE6.8 kmh SSE 8.3 mph13.4 kmh 29.86 in1011.2 mb 0.06 in1.5 mm 0.00 in0.0 mm 0.68 in17.3 mm
10:53 AM 44.6°F7.0°C 44.3°F6.8°C 99% 5.8 mph S9.3 kmh S 9.4 mph15.1 kmh 29.83 in1010.2 mb 0.06 in1.5 mm 0.00 in0.0 mm 0.68 in17.3 mm
10:52 AM 44.6°F7.0°C 44.3°F6.8°C 99% 2.2 mph SE3.5 kmh SE 9.9 mph15.9 kmh 29.83 in1010.2 mb 0.06 in1.5 mm 0.00 in0.0 mm 0.68 in17.3 mm
10:51 AM 44.4°F6.9°C 44.2°F6.8°C 99% 6.3 mph SSW10.1 kmh SSW 9.9 mph15.9 kmh 29.83 in1010.2 mb 0.06 in1.5 mm 0.00 in0.0 mm 0.68 in17.3 mm
10:50 AM 44.4°F6.9°C 44.2°F6.8°C 99% 7.3 mph ESE11.7 kmh ESE 9.9 mph15.9 kmh 29.83 in1010.2 mb 0.06 in1.5 mm 0.00 in0.0 mm 0.68 in17.3 mm
10:49 AM 44.4°F6.9°C 44.2°F6.8°C 99% 4.2 mph SSW6.8 kmh SSW 9.9 mph15.9 kmh 29.83 in1010.2 mb 0.06 in1.5 mm 0.00 in0.0 mm 0.68 in17.3 mm
10:48 AM 44.4°F6.9°C 44.2°F6.8°C 99% 3.2 mph S5.1 kmh S 9.9 mph15.9 kmh 29.83 in1010.2 mb 0.06 in1.5 mm 0.00 in0.0 mm 0.68 in17.3 mm
10:47 AM 44.4°F6.9°C 44.2°F6.8°C 99% 5.8 mph S9.3 kmh S 9.9 mph15.9 kmh 29.83 in1010.2 mb 0.06 in1.5 mm 0.00 in0.0 mm 0.68 in17.3 mm
10:46 AM 44.4°F6.9°C 44.2°F6.8°C 99% 7.8 mph ESE12.6 kmh ESE 9.9 mph15.9 kmh 29.83 in1010.2 mb 0.06 in1.5 mm 0.00 in0.0 mm 0.68 in17.3 mm
10:45 AM 44.4°F6.9°C 44.2°F6.8°C 99% 2.7 mph ENE4.3 kmh ENE 9.9 mph15.9 kmh 29.83 in1010.2 mb 0.06 in1.5 mm 0.60 in15.2 mm 0.68 in17.3 mm
10:44 AM 44.4°F6.9°C 44.2°F6.8°C 99% 5.8 mph SSE9.3 kmh SSE 9.9 mph15.9 kmh 29.83 in1010.2 mb 0.05 in1.3 mm 0.00 in0.0 mm 0.67 in17.0 mm
10:43 AM 44.4°F6.9°C 44.2°F6.8°C 99% 9.9 mph SSW15.9 kmh SSW 9.9 mph15.9 kmh 29.83 in1010.2 mb 0.05 in1.3 mm 0.60 in15.2 mm 0.67 in17.0 mm
10:42 AM 44.4°F6.9°C 44.2°F6.8°C 99% 3.2 mph SSE5.1 kmh SSE 6.3 mph10.1 kmh 29.83 in1010.2 mb 0.04 in1.0 mm 0.00 in0.0 mm 0.66 in16.8 mm
10:41 AM 44.4°F6.9°C 44.2°F6.8°C 99% 2.7 mph ENE4.3 kmh ENE 6.3 mph10.1 kmh 29.87 in1011.5 mb 0.04 in1.0 mm 0.00 in0.0 mm 0.66 in16.8 mm
10:40 AM 44.4°F6.9°C 44.2°F6.8°C 99% 4.7 mph N7.6 kmh N 6.3 mph10.1 kmh 29.87 in1011.5 mb 0.04 in1.0 mm 0.60 in15.2 mm 0.66 in16.8 mm
10:39 AM 44.4°F6.9°C 44.2°F6.8°C 99% 4.2 mph ESE6.8 kmh ESE 6.3 mph10.1 kmh 29.87 in1011.5 mb 0.03 in0.8 mm 0.60 in15.2 mm 0.65 in16.5 mm
10:38 AM 44.4°F6.9°C 44.2°F6.8°C 99% 5.3 mph ESE8.5 kmh ESE 6.3 mph10.1 kmh 29.87 in1011.5 mb 0.02 in0.5 mm 0.00 in0.0 mm 0.64 in16.3 mm
10:37 AM 44.4°F6.9°C 44.2°F6.8°C 99% 3.7 mph S6.0 kmh S 6.3 mph10.1 kmh 29.87 in1011.5 mb 0.02 in0.5 mm 0.00 in0.0 mm 0.64 in16.3 mm
10:36 AM 44.4°F6.9°C 44.2°F6.8°C 99% 1.7 mph ESE2.7 kmh ESE 6.3 mph10.1 kmh 29.87 in1011.5 mb 0.03 in0.8 mm 0.60 in15.2 mm 0.64 in16.3 mm
10:35 AM 44.4°F6.9°C 44.2°F6.8°C 99% Calm Calm 6.3 mph10.1 kmh 29.87 in1011.5 mb 0.02 in0.5 mm 0.00 in0.0 mm 0.63 in16.0 mm
10:34 AM 44.4°F6.9°C 44.2°F6.8°C 99% 2.7 mph SSE4.3 kmh SSE 8.3 mph13.4 kmh 29.87 in1011.5 mb 0.02 in0.5 mm 0.00 in0.0 mm 0.62 in15.7 mm
10:33 AM 44.4°F6.9°C 44.2°F6.8°C 99% 3.7 mph S6.0 kmh S 8.3 mph13.4 kmh 29.87 in1011.5 mb 0.02 in0.5 mm 0.00 in0.0 mm 0.62 in15.7 mm
10:32 AM 44.4°F6.9°C 44.2°F6.8°C 99% 4.7 mph ESE7.6 kmh ESE 8.3 mph13.4 kmh 29.87 in1011.5 mb 0.02 in0.5 mm 0.00 in0.0 mm 0.62 in15.7 mm
10:31 AM 44.4°F6.9°C 44.2°F6.8°C 99% 2.7 mph SSE4.3 kmh SSE 8.3 mph13.4 kmh 29.87 in1011.5 mb 0.02 in0.5 mm 0.00 in0.0 mm 0.62 in15.7 mm
10:30 AM 44.4°F6.9°C 44.2°F6.8°C 99% 4.2 mph SSW6.8 kmh SSW 8.3 mph13.4 kmh 29.87 in1011.5 mb 0.03 in0.8 mm 0.00 in0.0 mm 0.62 in15.7 mm
10:29 AM 44.4°F6.9°C 44.2°F6.8°C 99% 3.2 mph W5.1 kmh W 8.3 mph13.4 kmh 29.86 in1011.2 mb 0.04 in1.0 mm 0.00 in0.0 mm 0.62 in15.7 mm
10:28 AM 44.4°F6.9°C 44.2°F6.8°C 99% 4.7 mph SSE7.6 kmh SSE 8.3 mph13.4 kmh 29.86 in1011.2 mb 0.04 in1.0 mm 0.00 in0.0 mm 0.62 in15.7 mm
10:27 AM 44.4°F6.9°C 44.2°F6.8°C 99% 4.7 mph SE7.6 kmh SE 8.3 mph13.4 kmh 29.86 in1011.2 mb 0.05 in1.3 mm 0.00 in0.0 mm 0.62 in15.7 mm
10:26 AM 44.4°F6.9°C 44.2°F6.8°C 99% 4.2 mph SSW6.8 kmh SSW 8.3 mph13.4 kmh 29.86 in1011.2 mb 0.06 in1.5 mm 0.00 in0.0 mm 0.62 in15.7 mm
10:25 AM 44.4°F6.9°C 44.2°F6.8°C 99% 3.2 mph SSE5.1 kmh SSE 8.3 mph13.4 kmh 29.86 in1011.2 mb 0.06 in1.5 mm 0.00 in0.0 mm 0.62 in15.7 mm
10:24 AM 44.4°F6.9°C 44.2°F6.8°C 99% 8.3 mph ESE13.4 kmh ESE 11.9 mph19.2 kmh 29.86 in1011.2 mb 0.06 in1.5 mm 0.00 in0.0 mm 0.62 in15.7 mm
10:23 AM 44.4°F6.9°C 44.2°F6.8°C 99% 5.8 mph SE9.3 kmh SE 11.9 mph19.2 kmh 29.86 in1011.2 mb 0.07 in1.8 mm 0.00 in0.0 mm 0.62 in15.7 mm
10:22 AM 44.4°F6.9°C 44.2°F6.8°C 99% 6.3 mph SSW10.1 kmh SSW 11.9 mph19.2 kmh 29.86 in1011.2 mb 0.07 in1.8 mm 0.00 in0.0 mm 0.62 in15.7 mm
10:21 AM 44.4°F6.9°C 44.2°F6.8°C 99% 2.7 mph SSW4.3 kmh SSW 11.9 mph19.2 kmh 29.86 in1011.2 mb 0.08 in2.0 mm 0.00 in0.0 mm 0.62 in15.7 mm
10:20 AM 44.4°F6.9°C 44.2°F6.8°C 99% 3.2 mph SW5.1 kmh SW 11.9 mph19.2 kmh 29.86 in1011.2 mb 0.08 in2.0 mm 0.00 in0.0 mm 0.62 in15.7 mm
10:19 AM 44.4°F6.9°C 44.2°F6.8°C 99% 4.7 mph SSE7.6 kmh SSE 11.9 mph19.2 kmh 29.86 in1011.2 mb 0.08 in2.0 mm 0.00 in0.0 mm 0.62 in15.7 mm
10:18 AM 44.4°F6.9°C 44.2°F6.8°C 99% 4.2 mph S6.8 kmh S 11.9 mph19.2 kmh 29.86 in1011.2 mb 0.08 in2.0 mm 0.00 in0.0 mm 0.62 in15.7 mm
10:17 AM 44.4°F6.9°C 44.2°F6.8°C 99% 6.3 mph ESE10.1 kmh ESE 11.9 mph19.2 kmh 29.86 in1011.2 mb 0.08 in2.0 mm 0.00 in0.0 mm 0.62 in15.7 mm
10:16 AM 44.4°F6.9°C 44.2°F6.8°C 99% 5.8 mph S9.3 kmh S 11.9 mph19.2 kmh 29.85 in1010.8 mb 0.09 in2.3 mm 0.00 in0.0 mm 0.62 in15.7 mm
10:15 AM 44.4°F6.9°C 44.2°F6.8°C 99% 2.7 mph N4.3 kmh N 11.9 mph19.2 kmh 29.85 in1010.8 mb 0.10 in2.5 mm 0.00 in0.0 mm 0.62 in15.7 mm
10:14 AM 44.2°F6.8°C 44.0°F6.7°C 99% 12.0 mph SSW19.3 kmh SSW 11.9 mph19.2 kmh 29.85 in1010.8 mb 0.10 in2.5 mm 0.00 in0.0 mm 0.62 in15.7 mm
10:13 AM 44.2°F6.8°C 44.0°F6.7°C 99% 5.3 mph S8.5 kmh S 9.4 mph15.1 kmh 29.85 in1010.8 mb 0.10 in2.5 mm 0.00 in0.0 mm 0.62 in15.7 mm
10:12 AM 44.2°F6.8°C 44.0°F6.7°C 99% 5.8 mph SSE9.3 kmh SSE 9.4 mph15.1 kmh 29.85 in1010.8 mb 0.10 in2.5 mm 0.00 in0.0 mm 0.62 in15.7 mm
10:11 AM 44.2°F6.8°C 44.0°F6.7°C 99% 8.3 mph ESE13.4 kmh ESE 9.4 mph15.1 kmh 29.85 in1010.8 mb 0.10 in2.5 mm 0.00 in0.0 mm 0.62 in15.7 mm
10:10 AM 44.2°F6.8°C 44.0°F6.7°C 99% 6.8 mph S10.9 kmh S 9.4 mph15.1 kmh 29.85 in1010.8 mb 0.10 in2.5 mm 0.00 in0.0 mm 0.62 in15.7 mm
10:09 AM 44.2°F6.8°C 44.0°F6.7°C 99% Calm Calm 9.4 mph15.1 kmh 29.85 in1010.8 mb 0.12 in3.0 mm 0.00 in0.0 mm 0.62 in15.7 mm
10:08 AM 44.2°F6.8°C 44.0°F6.7°C 99% 3.7 mph N6.0 kmh N 9.4 mph15.1 kmh 29.85 in1010.8 mb 0.12 in3.0 mm 0.00 in0.0 mm 0.62 in15.7 mm
10:07 AM 44.2°F6.8°C 44.0°F6.7°C 99% 2.7 mph ESE4.3 kmh ESE 9.4 mph15.1 kmh 29.85 in1010.8 mb 0.12 in3.0 mm 0.00 in0.0 mm 0.62 in15.7 mm
10:06 AM 44.1°F6.7°C 43.8°F6.6°C 99% 4.7 mph ESE7.6 kmh ESE 9.4 mph15.1 kmh 29.85 in1010.8 mb 0.12 in3.0 mm 0.00 in0.0 mm 0.62 in15.7 mm
10:05 AM 44.1°F6.7°C 43.8°F6.6°C 99% 7.8 mph ESE12.6 kmh ESE 9.4 mph15.1 kmh 29.85 in1010.8 mb 0.12 in3.0 mm 0.00 in0.0 mm 0.62 in15.7 mm
10:04 AM 44.1°F6.7°C 43.8°F6.6°C 99% 6.8 mph S10.9 kmh S 7.8 mph12.6 kmh 29.85 in1010.8 mb 0.13 in3.3 mm 0.00 in0.0 mm 0.62 in15.7 mm
10:03 AM 44.1°F6.7°C 43.8°F6.6°C 99% 2.7 mph SSE4.3 kmh SSE 9.4 mph15.1 kmh 29.85 in1010.8 mb 0.14 in3.6 mm 0.00 in0.0 mm 0.62 in15.7 mm
10:02 AM 44.1°F6.7°C 43.8°F6.6°C 99% 6.3 mph ENE10.1 kmh ENE 9.4 mph15.1 kmh 29.85 in1010.8 mb 0.14 in3.6 mm 0.00 in0.0 mm 0.62 in15.7 mm
10:01 AM 44.1°F6.7°C 43.8°F6.6°C 99% 6.3 mph ESE10.1 kmh ESE 10.9 mph17.5 kmh 29.85 in1010.8 mb 0.14 in3.6 mm 0.00 in0.0 mm 0.62 in15.7 mm
10:00 AM 44.1°F6.7°C 43.8°F6.6°C 99% 3.7 mph SE6.0 kmh SE 10.9 mph17.5 kmh 29.85 in1010.8 mb 0.14 in3.6 mm 0.00 in0.0 mm 0.62 in15.7 mm
09:59 AM 44.1°F6.7°C 43.8°F6.6°C 99% 4.2 mph SSE6.8 kmh SSE 10.9 mph17.5 kmh 29.85 in1010.8 mb 0.15 in3.8 mm 0.00 in0.0 mm 0.62 in15.7 mm
09:58 AM 44.1°F6.7°C 43.8°F6.6°C 99% 4.2 mph ESE6.8 kmh ESE 10.9 mph17.5 kmh 29.85 in1010.8 mb 0.16 in4.1 mm 0.00 in0.0 mm 0.62 in15.7 mm
09:57 AM 44.1°F6.7°C 43.8°F6.6°C 99% 4.7 mph WSW7.6 kmh WSW 11.4 mph18.3 kmh 29.85 in1010.8 mb 0.16 in4.1 mm 0.00 in0.0 mm 0.62 in15.7 mm
09:56 AM 43.9°F6.6°C 43.6°F6.4°C 99% 7.8 mph SSE12.6 kmh SSE 11.4 mph18.3 kmh 29.85 in1010.8 mb 0.16 in4.1 mm 0.00 in0.0 mm 0.62 in15.7 mm
09:55 AM 43.9°F6.6°C 43.6°F6.4°C 99% 6.3 mph S10.1 kmh S 11.4 mph18.3 kmh 29.85 in1010.8 mb 0.17 in4.3 mm 0.00 in0.0 mm 0.62 in15.7 mm
09:54 AM 43.9°F6.6°C 43.6°F6.4°C 99% 5.8 mph ESE9.3 kmh ESE 11.4 mph18.3 kmh 29.85 in1010.8 mb 0.18 in4.6 mm 0.00 in0.0 mm 0.62 in15.7 mm
09:53 AM 43.9°F6.6°C 43.6°F6.4°C 99% 6.3 mph SE10.1 kmh SE 11.4 mph18.3 kmh 29.86 in1011.2 mb 0.18 in4.6 mm 0.00 in0.0 mm 0.62 in15.7 mm
09:52 AM 43.9°F6.6°C 43.6°F6.4°C 99% 6.8 mph ESE10.9 kmh ESE 11.4 mph18.3 kmh 29.86 in1011.2 mb 0.18 in4.6 mm 0.00 in0.0 mm 0.62 in15.7 mm
09:51 AM 43.7°F6.5°C 43.4°F6.3°C 99% 3.7 mph ESE6.0 kmh ESE 11.4 mph18.3 kmh 29.86 in1011.2 mb 0.19 in4.8 mm 0.00 in0.0 mm 0.62 in15.7 mm
09:50 AM 43.7°F6.5°C 43.4°F6.3°C 99% 4.7 mph N7.6 kmh N 11.4 mph18.3 kmh 29.86 in1011.2 mb 0.20 in5.1 mm 0.00 in0.0 mm 0.62 in15.7 mm
09:49 AM 43.7°F6.5°C 43.4°F6.3°C 99% 4.7 mph SE7.6 kmh SE 11.4 mph18.3 kmh 29.86 in1011.2 mb 0.20 in5.1 mm 0.00 in0.0 mm 0.62 in15.7 mm
09:48 AM 43.7°F6.5°C 43.4°F6.3°C 99% 6.8 mph SSE10.9 kmh SSE 11.4 mph18.3 kmh 29.86 in1011.2 mb 0.20 in5.1 mm 0.00 in0.0 mm 0.62 in15.7 mm
09:47 AM 43.7°F6.5°C 43.4°F6.3°C 99% 4.7 mph E7.6 kmh E 9.9 mph15.9 kmh 29.86 in1011.2 mb 0.20 in5.1 mm 0.00 in0.0 mm 0.62 in15.7 mm
09:46 AM 43.7°F6.5°C 43.4°F6.3°C 99% 9.4 mph E15.1 kmh E 9.9 mph15.9 kmh 29.86 in1011.2 mb 0.21 in5.3 mm 0.00 in0.0 mm 0.62 in15.7 mm
09:45 AM 43.7°F6.5°C 43.4°F6.3°C 99% 5.8 mph S9.3 kmh S 9.9 mph15.9 kmh 29.86 in1011.2 mb 0.22 in5.6 mm 0.00 in0.0 mm 0.62 in15.7 mm
09:44 AM 43.5°F6.4°C 43.3°F6.3°C 99% 4.2 mph ESE6.8 kmh ESE 9.9 mph15.9 kmh 29.86 in1011.2 mb 0.22 in5.6 mm 0.00 in0.0 mm 0.62 in15.7 mm
09:43 AM 43.5°F6.4°C 43.3°F6.3°C 99% 6.3 mph SE10.1 kmh SE 9.9 mph15.9 kmh 29.86 in1011.2 mb 0.22 in5.6 mm 0.00 in0.0 mm 0.62 in15.7 mm
09:42 AM 43.5°F6.4°C 43.3°F6.3°C 99% 6.3 mph ESE10.1 kmh ESE 9.9 mph15.9 kmh 29.86 in1011.2 mb 0.22 in5.6 mm 0.00 in0.0 mm 0.62 in15.7 mm
09:41 AM 43.3°F6.3°C 43.1°F6.2°C 99% 2.7 mph S4.3 kmh S 9.9 mph15.9 kmh 29.86 in1011.2 mb 0.22 in5.6 mm 0.00 in0.0 mm 0.62 in15.7 mm
09:40 AM 43.3°F6.3°C 43.1°F6.2°C 99% 8.3 mph ESE13.4 kmh ESE 9.9 mph15.9 kmh 29.85 in1010.8 mb 0.23 in5.8 mm 0.00 in0.0 mm 0.62 in15.7 mm
09:39 AM 43.3°F6.3°C 43.1°F6.2°C 99% 3.7 mph SE6.0 kmh SE 8.9 mph14.3 kmh 29.85 in1010.8 mb 0.24 in6.1 mm 0.00 in0.0 mm 0.62 in15.7 mm
09:38 AM 43.3°F6.3°C 43.1°F6.2°C 99% 5.3 mph ESE8.5 kmh ESE 8.9 mph14.3 kmh 29.85 in1010.8 mb 0.24 in6.1 mm 0.00 in0.0 mm 0.62 in15.7 mm
09:37 AM 43.3°F6.3°C 43.1°F6.2°C 99% 6.8 mph ESE10.9 kmh ESE 8.9 mph14.3 kmh 29.85 in1010.8 mb 0.24 in6.1 mm 0.60 in15.2 mm 0.62 in15.7 mm
09:36 AM 43.3°F6.3°C 43.1°F6.2°C 99% 4.7 mph SE7.6 kmh SE 8.9 mph14.3 kmh 29.85 in1010.8 mb 0.23 in5.8 mm 0.00 in0.0 mm 0.61 in15.5 mm
09:35 AM 43.3°F6.3°C 43.1°F6.2°C 99% 5.3 mph NE8.5 kmh NE 9.4 mph15.1 kmh 29.85 in1010.8 mb 0.23 in5.8 mm 0.00 in0.0 mm 0.61 in15.5 mm
09:34 AM 43.3°F6.3°C 43.1°F6.2°C 99% 4.2 mph S6.8 kmh S 9.4 mph15.1 kmh 29.85 in1010.8 mb 0.23 in5.8 mm 0.00 in0.0 mm 0.60 in15.2 mm
09:33 AM 43.2°F6.2°C 42.9°F6.1°C 99% 3.7 mph ESE6.0 kmh ESE 9.4 mph15.1 kmh 29.85 in1010.8 mb 0.23 in5.8 mm 0.00 in0.0 mm 0.60 in15.2 mm
09:32 AM 43.2°F6.2°C 42.9°F6.1°C 99% 5.8 mph S9.3 kmh S 9.4 mph15.1 kmh 29.85 in1010.8 mb 0.24 in6.1 mm 0.00 in0.0 mm 0.60 in15.2 mm
09:31 AM 43.2°F6.2°C 42.9°F6.1°C 99% 4.2 mph SSW6.8 kmh SSW 9.4 mph15.1 kmh 29.85 in1010.8 mb 0.24 in6.1 mm 0.60 in15.2 mm 0.60 in15.2 mm
09:30 AM 43.2°F6.2°C 42.9°F6.1°C 99% 4.7 mph S7.6 kmh S 9.4 mph15.1 kmh 29.85 in1010.8 mb 0.23 in5.8 mm 0.60 in15.2 mm 0.59 in15.0 mm
09:29 AM 43.2°F6.2°C 42.9°F6.1°C 99% 7.8 mph N12.6 kmh N 9.4 mph15.1 kmh 29.85 in1010.8 mb 0.22 in5.6 mm 0.00 in0.0 mm 0.58 in14.7 mm
09:28 AM 43.2°F6.2°C 42.9°F6.1°C 99% 4.2 mph ESE6.8 kmh ESE 9.4 mph15.1 kmh 29.89 in1012.2 mb 0.23 in5.8 mm 0.00 in0.0 mm 0.58 in14.7 mm
09:27 AM 43.2°F6.2°C 42.9°F6.1°C 99% 4.2 mph E6.8 kmh E 9.4 mph15.1 kmh 29.89 in1012.2 mb 0.23 in5.8 mm 0.60 in15.2 mm 0.57 in14.5 mm
09:26 AM 43.2°F6.2°C 42.9°F6.1°C 99% 3.2 mph SSW5.1 kmh SSW 9.4 mph15.1 kmh 29.89 in1012.2 mb 0.22 in5.6 mm 0.00 in0.0 mm 0.56 in14.2 mm
09:25 AM 43.2°F6.2°C 42.9°F6.1°C 99% 4.2 mph ESE6.8 kmh ESE 11.4 mph18.3 kmh 29.89 in1012.2 mb 0.23 in5.8 mm 0.00 in0.0 mm 0.56 in14.2 mm
09:24 AM 43.0°F6.1°C 42.7°F5.9°C 99% 8.3 mph ESE13.4 kmh ESE 11.4 mph18.3 kmh 29.89 in1012.2 mb 0.24 in6.1 mm 0.00 in0.0 mm 0.56 in14.2 mm
09:23 AM 43.0°F6.1°C 42.7°F5.9°C 99% 2.7 mph ESE4.3 kmh ESE 11.4 mph18.3 kmh 29.89 in1012.2 mb 0.24 in6.1 mm 0.60 in15.2 mm 0.56 in14.2 mm
09:22 AM 43.0°F6.1°C 42.7°F5.9°C 99% 6.3 mph S10.1 kmh S 11.4 mph18.3 kmh 29.89 in1012.2 mb 0.23 in5.8 mm 0.00 in0.0 mm 0.55 in14.0 mm
09:21 AM 43.0°F6.1°C 42.7°F5.9°C 99% 6.3 mph NW10.1 kmh NW 11.4 mph18.3 kmh 29.89 in1012.2 mb 0.23 in5.8 mm 0.60 in15.2 mm 0.55 in14.0 mm
09:20 AM 43.0°F6.1°C 42.7°F5.9°C 99% 3.7 mph ESE6.0 kmh ESE 11.4 mph18.3 kmh 29.89 in1012.2 mb 0.22 in5.6 mm 0.00 in0.0 mm 0.54 in13.7 mm
09:19 AM 43.0°F6.1°C 42.7°F5.9°C 99% 5.8 mph SSE9.3 kmh SSE 11.4 mph18.3 kmh 29.89 in1012.2 mb 0.23 in5.8 mm 0.00 in0.0 mm 0.54 in13.7 mm
09:18 AM 43.0°F6.1°C 42.7°F5.9°C 99% 3.2 mph ESE5.1 kmh ESE 11.4 mph18.3 kmh 29.89 in1012.2 mb 0.24 in6.1 mm 0.00 in0.0 mm 0.54 in13.7 mm
09:17 AM 43.0°F6.1°C 42.7°F5.9°C 99% 1.1 mph S1.8 kmh S 11.4 mph18.3 kmh 29.90 in1012.5 mb 0.24 in6.1 mm 0.60 in15.2 mm 0.54 in13.7 mm
09:16 AM 43.0°F6.1°C 42.7°F5.9°C 99% 6.3 mph ESE10.1 kmh ESE 11.4 mph18.3 kmh 29.90 in1012.5 mb 0.23 in5.8 mm 0.60 in15.2 mm 0.53 in13.5 mm
09:15 AM 42.8°F6.0°C 42.5°F5.8°C 99% 7.3 mph ESE11.7 kmh ESE 8.3 mph13.4 kmh 29.90 in1012.5 mb 0.22 in5.6 mm 0.00 in0.0 mm 0.52 in13.2 mm
09:14 AM 42.8°F6.0°C 42.5°F5.8°C 99% 4.7 mph SW7.6 kmh SW 6.8 mph10.9 kmh 29.90 in1012.5 mb 0.24 in6.1 mm 0.00 in0.0 mm 0.52 in13.2 mm
09:13 AM 42.8°F6.0°C 42.5°F5.8°C 99% 4.7 mph ESE7.6 kmh ESE 6.8 mph10.9 kmh 29.90 in1012.5 mb 0.24 in6.1 mm 0.00 in0.0 mm 0.52 in13.2 mm
09:12 AM 42.8°F6.0°C 42.5°F5.8°C 99% 1.7 mph N2.7 kmh N 6.8 mph10.9 kmh 29.90 in1012.5 mb 0.24 in6.1 mm 0.00 in0.0 mm 0.52 in13.2 mm
09:11 AM 42.8°F6.0°C 42.5°F5.8°C 99% 3.7 mph SSE6.0 kmh SSE 6.8 mph10.9 kmh 29.90 in1012.5 mb 0.24 in6.1 mm 0.00 in0.0 mm 0.52 in13.2 mm
09:10 AM 42.8°F6.0°C 42.5°F5.8°C 99% 6.8 mph S10.9 kmh S 6.8 mph10.9 kmh 29.90 in1012.5 mb 0.25 in6.4 mm 0.60 in15.2 mm 0.52 in13.2 mm
09:09 AM 42.8°F6.0°C 42.5°F5.8°C 99% 4.7 mph SSW7.6 kmh SSW 6.8 mph10.9 kmh 29.90 in1012.5 mb 0.24 in6.1 mm 0.00 in0.0 mm 0.50 in12.7 mm
09:08 AM 42.8°F6.0°C 42.5°F5.8°C 99% 1.1 mph SE1.8 kmh SE 6.3 mph10.1 kmh 29.90 in1012.5 mb 0.24 in6.1 mm 0.00 in0.0 mm 0.50 in12.7 mm
09:07 AM 42.8°F6.0°C 42.5°F5.8°C 99% 3.7 mph SSE6.0 kmh SSE 6.3 mph10.1 kmh 29.90 in1012.5 mb 0.24 in6.1 mm 0.00 in0.0 mm 0.50 in12.7 mm
09:06 AM 42.8°F6.0°C 42.5°F5.8°C 99% 4.2 mph S6.8 kmh S 6.3 mph10.1 kmh 29.90 in1012.5 mb 0.24 in6.1 mm 0.00 in0.0 mm 0.50 in12.7 mm
09:05 AM 42.8°F6.0°C 42.5°F5.8°C 99% 1.1 mph ESE1.8 kmh ESE 6.3 mph10.1 kmh 29.92 in1013.2 mb 0.24 in6.1 mm 0.60 in15.2 mm 0.50 in12.7 mm
09:04 AM 42.8°F6.0°C 42.5°F5.8°C 99% 6.3 mph ESE10.1 kmh ESE 6.3 mph10.1 kmh 29.92 in1013.2 mb 0.23 in5.8 mm 0.00 in0.0 mm 0.49 in12.4 mm
09:03 AM 42.6°F5.9°C 42.4°F5.8°C 99% 1.7 mph SSW2.7 kmh SSW 5.8 mph9.3 kmh 29.92 in1013.2 mb 0.23 in5.8 mm 0.00 in0.0 mm 0.48 in12.2 mm
09:02 AM 42.6°F5.9°C 42.4°F5.8°C 99% 2.7 mph SSE4.3 kmh SSE 5.8 mph9.3 kmh 29.92 in1013.2 mb 0.24 in6.1 mm 0.00 in0.0 mm 0.48 in12.2 mm
09:01 AM 42.6°F5.9°C 42.4°F5.8°C 99% 3.2 mph SW5.1 kmh SW 5.8 mph9.3 kmh 29.92 in1013.2 mb 0.24 in6.1 mm 0.00 in0.0 mm 0.48 in12.2 mm
09:00 AM 42.6°F5.9°C 42.4°F5.8°C 99% 3.2 mph E5.1 kmh E 5.8 mph9.3 kmh 29.92 in1013.2 mb 0.24 in6.1 mm 0.01 in0.3 mm 0.48 in12.2 mm
08:59 AM 42.6°F5.9°C 42.4°F5.8°C 99% Calm Calm 5.8 mph9.3 kmh 29.92 in1013.2 mb 0.23 in5.8 mm 0.60 in15.2 mm 0.47 in11.9 mm
08:58 AM 42.6°F5.9°C 42.4°F5.8°C 99% 4.2 mph ESE6.8 kmh ESE 4.7 mph7.6 kmh 29.92 in1013.2 mb 0.22 in5.6 mm 0.00 in0.0 mm 0.46 in11.7 mm
08:57 AM 42.6°F5.9°C 42.4°F5.8°C 99% 2.2 mph ESE3.5 kmh ESE 4.7 mph7.6 kmh 29.92 in1013.2 mb 0.24 in6.1 mm 0.00 in0.0 mm 0.46 in11.7 mm
08:56 AM 42.6°F5.9°C 42.4°F5.8°C 99% 2.7 mph SSW4.3 kmh SSW 3.7 mph6.0 kmh 29.92 in1013.2 mb 0.24 in6.1 mm 0.60 in15.2 mm 0.46 in11.7 mm
08:55 AM 42.6°F5.9°C 42.4°F5.8°C 99% 1.1 mph SSE1.8 kmh SSE 2.7 mph4.3 kmh 29.92 in1013.2 mb 0.23 in5.8 mm 0.60 in15.2 mm 0.45 in11.4 mm
08:54 AM 42.6°F5.9°C 42.4°F5.8°C 99% 1.7 mph SSE2.7 kmh SSE 2.7 mph4.3 kmh 29.92 in1013.2 mb 0.22 in5.6 mm 0.00 in0.0 mm 0.44 in11.2 mm
08:53 AM 42.6°F5.9°C 42.4°F5.8°C 99% 1.1 mph ESE1.8 kmh ESE 2.2 mph3.5 kmh 29.92 in1013.2 mb 0.22 in5.6 mm 0.00 in0.0 mm 0.44 in11.2 mm
08:52 AM 42.6°F5.9°C 42.4°F5.8°C 99% Calm Calm 2.2 mph3.5 kmh 29.92 in1013.2 mb 0.22 in5.6 mm 0.60 in15.2 mm 0.44 in11.2 mm
08:51 AM 42.6°F5.9°C 42.4°F5.8°C 99% Calm Calm 2.2 mph3.5 kmh 29.92 in1013.2 mb 0.21 in5.3 mm 0.00 in0.0 mm 0.43 in10.9 mm
08:50 AM 42.6°F5.9°C 42.4°F5.8°C 99% 2.2 mph ESE3.5 kmh ESE 4.7 mph7.6 kmh 29.92 in1013.2 mb 0.21 in5.3 mm 0.00 in0.0 mm 0.42 in10.7 mm
08:49 AM 42.6°F5.9°C 42.4°F5.8°C 99% Calm Calm 4.7 mph7.6 kmh 29.92 in1013.2 mb 0.21 in5.3 mm 0.00 in0.0 mm 0.42 in10.7 mm
08:48 AM 42.6°F5.9°C 42.4°F5.8°C 99% Calm Calm 4.7 mph7.6 kmh 29.92 in1013.2 mb 0.21 in5.3 mm 0.00 in0.0 mm 0.42 in10.7 mm
08:47 AM 42.6°F5.9°C 42.4°F5.8°C 99% Calm Calm 7.3 mph11.7 kmh 29.92 in1013.2 mb 0.22 in5.6 mm 0.60 in15.2 mm 0.42 in10.7 mm
08:46 AM 42.6°F5.9°C 42.4°F5.8°C 99% Calm Calm 7.3 mph11.7 kmh 29.92 in1013.2 mb 0.21 in5.3 mm 0.00 in0.0 mm 0.41 in10.4 mm
08:45 AM 42.6°F5.9°C 42.4°F5.8°C 99% Calm Calm 7.3 mph11.7 kmh 29.92 in1013.2 mb 0.21 in5.3 mm 0.60 in15.2 mm 0.41 in10.4 mm
08:44 AM 42.6°F5.9°C 42.4°F5.8°C 99% Calm Calm 7.3 mph11.7 kmh 29.92 in1013.2 mb 0.20 in5.1 mm 0.00 in0.0 mm 0.40 in10.2 mm
08:43 AM 42.6°F5.9°C 42.4°F5.8°C 99% Calm Calm 7.3 mph11.7 kmh 29.92 in1013.2 mb 0.21 in5.3 mm 0.00 in0.0 mm 0.40 in10.2 mm
08:42 AM 42.6°F5.9°C 42.4°F5.8°C 99% Calm Calm 7.3 mph11.7 kmh 29.92 in1013.2 mb 0.21 in5.3 mm 0.00 in0.0 mm 0.40 in10.2 mm
08:41 AM 42.6°F5.9°C 42.4°F5.8°C 99% 1.7 mph ESE2.7 kmh ESE 7.3 mph11.7 kmh 29.93 in1013.5 mb 0.21 in5.3 mm 0.60 in15.2 mm 0.40 in10.2 mm
08:40 AM 42.6°F5.9°C 42.4°F5.8°C 99% 4.7 mph SE7.6 kmh SE 7.3 mph11.7 kmh 29.93 in1013.5 mb 0.20 in5.1 mm 0.00 in0.0 mm 0.39 in9.9 mm
08:39 AM 42.6°F5.9°C 42.4°F5.8°C 99% 2.7 mph SE4.3 kmh SE 7.3 mph11.7 kmh 29.93 in1013.5 mb 0.21 in5.3 mm 0.60 in15.2 mm 0.39 in9.9 mm
08:38 AM 42.6°F5.9°C 42.4°F5.8°C 99% 2.7 mph ESE4.3 kmh ESE 7.3 mph11.7 kmh 29.93 in1013.5 mb 0.20 in5.1 mm 0.00 in0.0 mm 0.38 in9.7 mm
08:37 AM 42.6°F5.9°C 42.4°F5.8°C 99% 7.3 mph ESE11.7 kmh ESE 7.3 mph11.7 kmh 29.93 in1013.5 mb 0.20 in5.1 mm 0.00 in0.0 mm 0.38 in9.7 mm
08:36 AM 42.6°F5.9°C 42.4°F5.8°C 99% Calm Calm 3.7 mph6.0 kmh 29.93 in1013.5 mb 0.20 in5.1 mm 0.00 in0.0 mm 0.38 in9.7 mm
08:35 AM 42.6°F5.9°C 42.4°F5.8°C 99% Calm Calm 3.7 mph6.0 kmh 29.93 in1013.5 mb 0.20 in5.1 mm 0.00 in0.0 mm 0.38 in9.7 mm
08:34 AM 42.6°F5.9°C 42.4°F5.8°C 99% Calm Calm 3.7 mph6.0 kmh 29.93 in1013.5 mb 0.20 in5.1 mm 0.60 in15.2 mm 0.38 in9.7 mm
08:33 AM 42.6°F5.9°C 42.4°F5.8°C 99% Calm Calm 3.7 mph6.0 kmh 29.93 in1013.5 mb 0.19 in4.8 mm 0.00 in0.0 mm 0.37 in9.4 mm
08:32 AM 42.4°F5.8°C 42.2°F5.7°C 99% 2.2 mph ESE3.5 kmh ESE 3.7 mph6.0 kmh 29.93 in1013.5 mb 0.19 in4.8 mm 0.60 in15.2 mm 0.37 in9.4 mm
08:31 AM 42.4°F5.8°C 42.2°F5.7°C 99% Calm Calm 3.2 mph5.1 kmh 29.93 in1013.5 mb 0.18 in4.6 mm 0.00 in0.0 mm 0.36 in9.1 mm
08:30 AM 42.4°F5.8°C 42.2°F5.7°C 99% 2.2 mph ESE3.5 kmh ESE 3.2 mph5.1 kmh 29.93 in1013.5 mb 0.18 in4.6 mm 0.00 in0.0 mm 0.36 in9.1 mm
08:29 AM 42.4°F5.8°C 42.2°F5.7°C 99% Calm Calm 3.2 mph5.1 kmh 29.94 in1013.9 mb 0.18 in4.6 mm 0.60 in15.2 mm 0.36 in9.1 mm
08:28 AM 42.4°F5.8°C 42.2°F5.7°C 99% Calm Calm 3.2 mph5.1 kmh 29.94 in1013.9 mb 0.17 in4.3 mm 0.00 in0.0 mm 0.35 in8.9 mm
08:27 AM 42.4°F5.8°C 42.2°F5.7°C 99% Calm Calm 3.2 mph5.1 kmh 29.94 in1013.9 mb 0.17 in4.3 mm 0.60 in15.2 mm 0.35 in8.9 mm
08:26 AM 42.4°F5.8°C 42.2°F5.7°C 99% 1.7 mph SSE2.7 kmh SSE 3.2 mph5.1 kmh 29.94 in1013.9 mb 0.16 in4.1 mm 0.00 in0.0 mm 0.34 in8.6 mm
08:25 AM 42.4°F5.8°C 42.2°F5.7°C 99% Calm Calm 3.2 mph5.1 kmh 29.94 in1013.9 mb 0.16 in4.1 mm 0.00 in0.0 mm 0.33 in8.4 mm
08:24 AM 42.4°F5.8°C 42.2°F5.7°C 99% 2.2 mph ESE3.5 kmh ESE 4.2 mph6.8 kmh 29.94 in1013.9 mb 0.16 in4.1 mm 0.60 in15.2 mm 0.33 in8.4 mm
08:23 AM 42.4°F5.8°C 42.2°F5.7°C 99% 3.2 mph ESE5.1 kmh ESE 4.2 mph6.8 kmh 29.94 in1013.9 mb 0.15 in3.8 mm 0.00 in0.0 mm 0.32 in8.1 mm
08:22 AM 42.4°F5.8°C 42.2°F5.7°C 99% Calm Calm 4.2 mph6.8 kmh 29.94 in1013.9 mb 0.15 in3.8 mm 0.00 in0.0 mm 0.32 in8.1 mm
08:21 AM 42.4°F5.8°C 42.2°F5.7°C 99% Calm Calm 4.2 mph6.8 kmh 29.94 in1013.9 mb 0.15 in3.8 mm 0.00 in0.0 mm 0.32 in8.1 mm
08:20 AM 42.4°F5.8°C 42.2°F5.7°C 99% Calm Calm 4.2 mph6.8 kmh 29.94 in1013.9 mb 0.15 in3.8 mm 0.00 in0.0 mm 0.32 in8.1 mm
08:19 AM 42.4°F5.8°C 42.2°F5.7°C 99% Calm Calm 4.2 mph6.8 kmh 29.94 in1013.9 mb 0.15 in3.8 mm 0.60 in15.2 mm 0.31 in7.9 mm
08:18 AM 42.4°F5.8°C 42.2°F5.7°C 99% Calm Calm 4.2 mph6.8 kmh 29.94 in1013.9 mb 0.14 in3.6 mm 0.00 in0.0 mm 0.30 in7.6 mm
08:17 AM 42.4°F5.8°C 42.2°F5.7°C 99% Calm Calm 4.2 mph6.8 kmh 29.94 in1013.9 mb 0.14 in3.6 mm 0.00 in0.0 mm 0.30 in7.6 mm
08:16 AM 42.4°F5.8°C 42.2°F5.7°C 99% Calm Calm 4.2 mph6.8 kmh 29.94 in1013.9 mb 0.14 in3.6 mm 0.00 in0.0 mm 0.30 in7.6 mm
08:15 AM 42.4°F5.8°C 42.2°F5.7°C 99% 3.2 mph N5.1 kmh N 4.2 mph6.8 kmh 29.94 in1013.9 mb 0.14 in3.6 mm 0.60 in15.2 mm 0.30 in7.6 mm
08:14 AM 42.4°F5.8°C 42.2°F5.7°C 99% 2.7 mph N4.3 kmh N 4.2 mph6.8 kmh 29.94 in1013.9 mb 0.13 in3.3 mm 0.60 in15.2 mm 0.29 in7.4 mm
08:13 AM 42.4°F5.8°C 42.2°F5.7°C 99% 2.2 mph N3.5 kmh N 4.2 mph6.8 kmh 29.94 in1013.9 mb 0.12 in3.0 mm 0.00 in0.0 mm 0.28 in7.1 mm
08:12 AM 42.4°F5.8°C 42.2°F5.7°C 99% 2.2 mph WSW3.5 kmh WSW 2.7 mph4.3 kmh 29.94 in1013.9 mb 0.12 in3.0 mm 0.00 in0.0 mm 0.28 in7.1 mm
08:11 AM 42.4°F5.8°C 42.2°F5.7°C 99% Calm Calm 2.7 mph4.3 kmh 29.94 in1013.9 mb 0.12 in3.0 mm 0.00 in0.0 mm 0.28 in7.1 mm
08:10 AM 42.4°F5.8°C 42.2°F5.7°C 99% Calm Calm 2.7 mph4.3 kmh 29.94 in1013.9 mb 0.12 in3.0 mm 1.20 in30.5 mm 0.28 in7.1 mm
08:09 AM 42.4°F5.8°C 42.2°F5.7°C 99% Calm Calm 2.7 mph4.3 kmh 29.94 in1013.9 mb 0.10 in2.5 mm 0.00 in0.0 mm 0.26 in6.6 mm
08:08 AM 42.4°F5.8°C 42.2°F5.7°C 99% Calm Calm 2.7 mph4.3 kmh 29.94 in1013.9 mb 0.10 in2.5 mm 0.00 in0.0 mm 0.26 in6.6 mm
08:07 AM 42.4°F5.8°C 42.2°F5.7°C 99% Calm Calm 4.7 mph7.6 kmh 29.94 in1013.9 mb 0.10 in2.5 mm 0.00 in0.0 mm 0.26 in6.6 mm
08:06 AM 42.4°F5.8°C 42.2°F5.7°C 99% Calm Calm 4.7 mph7.6 kmh 29.94 in1013.9 mb 0.10 in2.5 mm 0.00 in0.0 mm 0.26 in6.6 mm
08:05 AM 42.4°F5.8°C 42.2°F5.7°C 99% 2.2 mph ESE3.5 kmh ESE 4.7 mph7.6 kmh 29.94 in1013.9 mb 0.10 in2.5 mm 0.00 in0.0 mm 0.26 in6.6 mm
08:04 AM 42.3°F5.7°C 42.0°F5.6°C 99% Calm Calm 4.7 mph7.6 kmh 29.94 in1013.9 mb 0.10 in2.5 mm 0.60 in15.2 mm 0.26 in6.6 mm
08:03 AM 42.3°F5.7°C 42.0°F5.6°C 99% Calm Calm 4.7 mph7.6 kmh 29.94 in1013.9 mb 0.09 in2.3 mm 0.00 in0.0 mm 0.25 in6.4 mm
08:02 AM 42.3°F5.7°C 42.0°F5.6°C 99% Calm Calm 4.7 mph7.6 kmh 29.94 in1013.9 mb 0.09 in2.3 mm 0.60 in15.2 mm 0.25 in6.4 mm
08:01 AM 42.3°F5.7°C 42.0°F5.6°C 99% Calm Calm 4.7 mph7.6 kmh 29.94 in1013.9 mb 0.08 in2.0 mm 0.00 in0.0 mm 0.24 in6.1 mm
08:00 AM 42.3°F5.7°C 42.0°F5.6°C 99% Calm Calm 4.7 mph7.6 kmh 29.94 in1013.9 mb 0.08 in2.0 mm 0.00 in0.0 mm 0.24 in6.1 mm
07:59 AM 42.3°F5.7°C 42.0°F5.6°C 99% 1.7 mph S2.7 kmh S 4.7 mph7.6 kmh 29.94 in1013.9 mb 0.08 in2.0 mm 0.00 in0.0 mm 0.24 in6.1 mm
07:58 AM 42.3°F5.7°C 42.0°F5.6°C 99% Calm Calm 4.7 mph7.6 kmh 29.94 in1013.9 mb 0.08 in2.0 mm 0.60 in15.2 mm 0.24 in6.1 mm
07:57 AM 42.3°F5.7°C 42.0°F5.6°C 99% 1.7 mph E2.7 kmh E 4.7 mph7.6 kmh 29.94 in1013.9 mb 0.07 in1.8 mm 0.60 in15.2 mm 0.23 in5.8 mm
07:56 AM 42.3°F5.7°C 42.0°F5.6°C 99% Calm Calm 4.7 mph7.6 kmh 29.94 in1013.9 mb 0.06 in1.5 mm 0.00 in0.0 mm 0.22 in5.6 mm
07:55 AM 42.3°F5.7°C 42.0°F5.6°C 99% Calm Calm 4.7 mph7.6 kmh 29.94 in1013.9 mb 0.06 in1.5 mm 0.00 in0.0 mm 0.22 in5.6 mm
07:54 AM 42.3°F5.7°C 42.0°F5.6°C 99% Calm Calm 4.7 mph7.6 kmh 29.94 in1013.9 mb 0.06 in1.5 mm 0.00 in0.0 mm 0.22 in5.6 mm
07:53 AM 42.3°F5.7°C 42.0°F5.6°C 99% 1.1 mph SW1.8 kmh SW 4.7 mph7.6 kmh 29.93 in1013.5 mb 0.06 in1.5 mm 0.00 in0.0 mm 0.22 in5.6 mm
07:52 AM 42.3°F5.7°C 42.0°F5.6°C 99% 1.7 mph SSW2.7 kmh SSW 4.7 mph7.6 kmh 29.93 in1013.5 mb 0.06 in1.5 mm 0.00 in0.0 mm 0.22 in5.6 mm
07:51 AM 42.3°F5.7°C 42.0°F5.6°C 99% 1.1 mph WSW1.8 kmh WSW 4.7 mph7.6 kmh 29.93 in1013.5 mb 0.06 in1.5 mm 0.00 in0.0 mm 0.22 in5.6 mm
07:50 AM 42.3°F5.7°C 42.0°F5.6°C 99% Calm Calm 4.7 mph7.6 kmh 29.93 in1013.5 mb 0.06 in1.5 mm 0.60 in15.2 mm 0.22 in5.6 mm
07:49 AM 42.3°F5.7°C 42.0°F5.6°C 99% 2.2 mph SSE3.5 kmh SSE 4.7 mph7.6 kmh 29.93 in1013.5 mb 0.05 in1.3 mm 0.00 in0.0 mm 0.21 in5.3 mm
07:48 AM 42.3°F5.7°C 42.0°F5.6°C 99% 3.2 mph S5.1 kmh S 4.7 mph7.6 kmh 29.93 in1013.5 mb 0.05 in1.3 mm 0.60 in15.2 mm 0.21 in5.3 mm
07:47 AM 42.1°F5.6°C 41.8°F5.4°C 99% Calm Calm 4.7 mph7.6 kmh 29.93 in1013.5 mb 0.04 in1.0 mm 0.00 in0.0 mm 0.20 in5.1 mm
07:46 AM 42.1°F5.6°C 41.8°F5.4°C 99% 1.7 mph SW2.7 kmh SW 4.7 mph7.6 kmh 29.93 in1013.5 mb 0.04 in1.0 mm 0.00 in0.0 mm 0.20 in5.1 mm
07:45 AM 42.1°F5.6°C 41.8°F5.4°C 99% 2.7 mph ESE4.3 kmh ESE 4.7 mph7.6 kmh 29.93 in1013.5 mb 0.04 in1.0 mm 0.00 in0.0 mm 0.20 in5.1 mm
07:44 AM 42.1°F5.6°C 41.8°F5.4°C 99% 4.7 mph ESE7.6 kmh ESE 4.7 mph7.6 kmh 29.93 in1013.5 mb 0.04 in1.0 mm 0.00 in0.0 mm 0.20 in5.1 mm
07:43 AM 42.1°F5.6°C 41.8°F5.4°C 99% Calm Calm 4.2 mph6.8 kmh 29.93 in1013.5 mb 0.04 in1.0 mm 0.60 in15.2 mm 0.20 in5.1 mm
07:42 AM 42.1°F5.6°C 41.8°F5.4°C 99% 1.1 mph ESE1.8 kmh ESE 7.3 mph11.7 kmh 29.93 in1013.5 mb 0.03 in0.8 mm 0.00 in0.0 mm 0.19 in4.8 mm
07:41 AM 42.1°F5.6°C 41.8°F5.4°C 99% 1.1 mph S1.8 kmh S 7.3 mph11.7 kmh 29.92 in1013.2 mb 0.03 in0.8 mm 0.00 in0.0 mm 0.19 in4.8 mm
07:40 AM 42.1°F5.6°C 41.8°F5.4°C 99% 1.1 mph SSW1.8 kmh SSW 7.3 mph11.7 kmh 29.92 in1013.2 mb 0.03 in0.8 mm 0.00 in0.0 mm 0.19 in4.8 mm
07:39 AM 42.1°F5.6°C 41.8°F5.4°C 99% Calm Calm 7.3 mph11.7 kmh 29.92 in1013.2 mb 0.03 in0.8 mm 0.60 in15.2 mm 0.19 in4.8 mm
07:38 AM 42.1°F5.6°C 41.8°F5.4°C 99% Calm Calm 7.3 mph11.7 kmh 29.92 in1013.2 mb 0.02 in0.5 mm 0.00 in0.0 mm 0.18 in4.6 mm
07:37 AM 42.1°F5.6°C 41.8°F5.4°C 99% Calm Calm 7.3 mph11.7 kmh 29.92 in1013.2 mb 0.02 in0.5 mm 0.00 in0.0 mm 0.18 in4.6 mm
07:36 AM 42.1°F5.6°C 41.8°F5.4°C 99% 1.7 mph E2.7 kmh E 7.3 mph11.7 kmh 29.92 in1013.2 mb 0.02 in0.5 mm 0.00 in0.0 mm 0.18 in4.6 mm
07:35 AM 42.1°F5.6°C 41.8°F5.4°C 99% Calm Calm 7.3 mph11.7 kmh 29.92 in1013.2 mb 0.02 in0.5 mm 0.00 in0.0 mm 0.18 in4.6 mm
07:34 AM 42.1°F5.6°C 41.8°F5.4°C 99% 3.2 mph ESE5.1 kmh ESE 8.3 mph13.4 kmh 29.92 in1013.2 mb 0.02 in0.5 mm 0.00 in0.0 mm 0.18 in4.6 mm
07:33 AM 42.1°F5.6°C 41.8°F5.4°C 99% 7.3 mph SE11.7 kmh SE 8.3 mph13.4 kmh 29.92 in1013.2 mb 0.02 in0.5 mm 0.00 in0.0 mm 0.18 in4.6 mm
07:32 AM 42.1°F5.6°C 41.8°F5.4°C 99% Calm Calm 8.3 mph13.4 kmh 29.92 in1013.2 mb 0.02 in0.5 mm 0.00 in0.0 mm 0.18 in4.6 mm
07:31 AM 42.1°F5.6°C 41.8°F5.4°C 99% 2.2 mph SE3.5 kmh SE 8.3 mph13.4 kmh 29.92 in1013.2 mb 0.02 in0.5 mm 0.00 in0.0 mm 0.18 in4.6 mm
07:30 AM 42.1°F5.6°C 41.8°F5.4°C 99% 6.3 mph SW10.1 kmh SW 8.3 mph13.4 kmh 29.92 in1013.2 mb 0.02 in0.5 mm 0.00 in0.0 mm 0.18 in4.6 mm
07:29 AM 42.1°F5.6°C 41.8°F5.4°C 99% Calm Calm 8.3 mph13.4 kmh 29.93 in1013.5 mb 0.02 in0.5 mm 0.00 in0.0 mm 0.18 in4.6 mm
07:28 AM 42.1°F5.6°C 41.8°F5.4°C 99% 1.1 mph SSE1.8 kmh SSE 8.3 mph13.4 kmh 29.93 in1013.5 mb 0.03 in0.8 mm 0.00 in0.0 mm 0.18 in4.6 mm
07:27 AM 42.1°F5.6°C 41.8°F5.4°C 99% 2.2 mph ESE3.5 kmh ESE 8.3 mph13.4 kmh 29.93 in1013.5 mb 0.03 in0.8 mm 0.00 in0.0 mm 0.18 in4.6 mm
07:26 AM 42.1°F5.6°C 41.8°F5.4°C 99% 3.7 mph ESE6.0 kmh ESE 8.3 mph13.4 kmh 29.93 in1013.5 mb 0.03 in0.8 mm 0.00 in0.0 mm 0.18 in4.6 mm
07:25 AM 42.1°F5.6°C 41.8°F5.4°C 99% 4.2 mph S6.8 kmh S 8.3 mph13.4 kmh 29.93 in1013.5 mb 0.03 in0.8 mm 0.00 in0.0 mm 0.18 in4.6 mm
07:24 AM 42.1°F5.6°C 41.8°F5.4°C 99% 3.7 mph SSE6.0 kmh SSE 6.3 mph10.1 kmh 29.93 in1013.5 mb 0.03 in0.8 mm 0.00 in0.0 mm 0.17 in4.3 mm
07:23 AM 42.1°F5.6°C 41.8°F5.4°C 99% Calm Calm 6.3 mph10.1 kmh 29.93 in1013.5 mb 0.03 in0.8 mm 0.00 in0.0 mm 0.17 in4.3 mm
07:22 AM 42.1°F5.6°C 41.8°F5.4°C 99% Calm Calm 6.3 mph10.1 kmh 29.93 in1013.5 mb 0.03 in0.8 mm 0.00 in0.0 mm 0.17 in4.3 mm
07:21 AM 42.1°F5.6°C 41.8°F5.4°C 99% 2.2 mph NE3.5 kmh NE 6.3 mph10.1 kmh 29.93 in1013.5 mb 0.03 in0.8 mm 0.00 in0.0 mm 0.17 in4.3 mm
07:20 AM 42.1°F5.6°C 41.8°F5.4°C 99% 4.7 mph N7.6 kmh N 6.3 mph10.1 kmh 29.93 in1013.5 mb 0.03 in0.8 mm 0.00 in0.0 mm 0.17 in4.3 mm
07:19 AM 42.1°F5.6°C 41.8°F5.4°C 99% 2.7 mph SSE4.3 kmh SSE 6.3 mph10.1 kmh 29.93 in1013.5 mb 0.03 in0.8 mm 0.60 in15.2 mm 0.17 in4.3 mm
07:18 AM 42.1°F5.6°C 41.8°F5.4°C 99% 3.2 mph SSE5.1 kmh SSE 6.3 mph10.1 kmh 29.93 in1013.5 mb 0.02 in0.5 mm 0.00 in0.0 mm 0.16 in4.1 mm
07:17 AM 42.1°F5.6°C 41.8°F5.4°C 99% Calm Calm 6.3 mph10.1 kmh 29.93 in1013.5 mb 0.02 in0.5 mm 0.00 in0.0 mm 0.16 in4.1 mm
07:16 AM 42.1°F5.6°C 41.8°F5.4°C 99% 3.7 mph SSW6.0 kmh SSW 6.3 mph10.1 kmh 29.93 in1013.5 mb 0.02 in0.5 mm 0.00 in0.0 mm 0.16 in4.1 mm
07:15 AM 41.9°F5.5°C 41.6°F5.3°C 99% 4.7 mph ESE7.6 kmh ESE 4.7 mph7.6 kmh 29.93 in1013.5 mb 0.02 in0.5 mm 0.00 in0.0 mm 0.16 in4.1 mm
07:14 AM 41.9°F5.5°C 41.6°F5.3°C 99% 4.2 mph S6.8 kmh S 4.2 mph6.8 kmh 29.93 in1013.5 mb 0.02 in0.5 mm 0.00 in0.0 mm 0.16 in4.1 mm
07:13 AM 41.9°F5.5°C 41.6°F5.3°C 99% 1.1 mph N1.8 kmh N 4.2 mph6.8 kmh 29.93 in1013.5 mb 0.02 in0.5 mm 0.00 in0.0 mm 0.16 in4.1 mm
07:12 AM 41.9°F5.5°C 41.6°F5.3°C 99% 4.2 mph ESE6.8 kmh ESE 4.2 mph6.8 kmh 29.93 in1013.5 mb 0.02 in0.5 mm 0.00 in0.0 mm 0.16 in4.1 mm
07:11 AM 41.9°F5.5°C 41.6°F5.3°C 99% Calm Calm 2.7 mph4.3 kmh 29.93 in1013.5 mb 0.02 in0.5 mm 0.00 in0.0 mm 0.16 in4.1 mm
07:10 AM 41.9°F5.5°C 41.6°F5.3°C 99% 1.7 mph S2.7 kmh S 4.2 mph6.8 kmh 29.93 in1013.5 mb 0.02 in0.5 mm 0.00 in0.0 mm 0.16 in4.1 mm
07:09 AM 41.9°F5.5°C 41.6°F5.3°C 99% Calm Calm 4.2 mph6.8 kmh 29.93 in1013.5 mb 0.02 in0.5 mm 0.00 in0.0 mm 0.16 in4.1 mm
07:08 AM 41.9°F5.5°C 41.6°F5.3°C 99% Calm Calm 4.2 mph6.8 kmh 29.93 in1013.5 mb 0.02 in0.5 mm 0.00 in0.0 mm 0.16 in4.1 mm
07:07 AM 41.9°F5.5°C 41.6°F5.3°C 99% 2.2 mph S3.5 kmh S 4.2 mph6.8 kmh 29.93 in1013.5 mb 0.02 in0.5 mm 0.00 in0.0 mm 0.16 in4.1 mm
07:06 AM 41.9°F5.5°C 41.6°F5.3°C 99% Calm Calm 4.2 mph6.8 kmh 29.93 in1013.5 mb 0.02 in0.5 mm 0.00 in0.0 mm 0.16 in4.1 mm
07:05 AM 41.9°F5.5°C 41.6°F5.3°C 99% Calm Calm 4.2 mph6.8 kmh 29.93 in1013.5 mb 0.02 in0.5 mm 0.00 in0.0 mm 0.16 in4.1 mm
07:04 AM 41.9°F5.5°C 41.6°F5.3°C 99% Calm Calm 4.2 mph6.8 kmh 29.93 in1013.5 mb 0.02 in0.5 mm 0.00 in0.0 mm 0.16 in4.1 mm
07:03 AM 41.9°F5.5°C 41.6°F5.3°C 99% Calm Calm 4.2 mph6.8 kmh 29.93 in1013.5 mb 0.02 in0.5 mm 0.00 in0.0 mm 0.16 in4.1 mm
07:02 AM 41.9°F5.5°C 41.6°F5.3°C 99% 1.1 mph S1.8 kmh S 4.2 mph6.8 kmh 29.93 in1013.5 mb 0.02 in0.5 mm 0.00 in0.0 mm 0.16 in4.1 mm
07:01 AM 41.9°F5.5°C 41.6°F5.3°C 99% Calm Calm 5.3 mph8.5 kmh 29.93 in1013.5 mb 0.02 in0.5 mm 0.00 in0.0 mm 0.16 in4.1 mm
07:00 AM 41.9°F5.5°C 41.6°F5.3°C 99% Calm Calm 5.3 mph8.5 kmh 29.93 in1013.5 mb 0.02 in0.5 mm 0.00 in0.0 mm 0.16 in4.1 mm
06:59 AM 41.9°F5.5°C 41.6°F5.3°C 99% Calm Calm 5.3 mph8.5 kmh 29.93 in1013.5 mb 0.02 in0.5 mm 0.00 in0.0 mm 0.16 in4.1 mm
06:58 AM 41.9°F5.5°C 41.6°F5.3°C 99% Calm Calm 5.3 mph8.5 kmh 29.93 in1013.5 mb 0.02 in0.5 mm 0.00 in0.0 mm 0.16 in4.1 mm
06:57 AM 41.9°F5.5°C 41.6°F5.3°C 99% 2.7 mph ESE4.3 kmh ESE 5.3 mph8.5 kmh 29.93 in1013.5 mb 0.02 in0.5 mm 0.00 in0.0 mm 0.16 in4.1 mm
06:56 AM 41.9°F5.5°C 41.6°F5.3°C 99% Calm Calm 5.3 mph8.5 kmh 29.93 in1013.5 mb 0.02 in0.5 mm 0.00 in0.0 mm 0.16 in4.1 mm
06:55 AM 41.9°F5.5°C 41.6°F5.3°C 99% Calm Calm 5.8 mph9.3 kmh 29.93 in1013.5 mb 0.02 in0.5 mm 0.00 in0.0 mm 0.16 in4.1 mm
06:54 AM 41.9°F5.5°C 41.6°F5.3°C 99% Calm Calm 5.8 mph9.3 kmh 29.93 in1013.5 mb 0.02 in0.5 mm 0.00 in0.0 mm 0.16 in4.1 mm
06:53 AM 41.9°F5.5°C 41.6°F5.3°C 99% Calm Calm 5.8 mph9.3 kmh 29.93 in1013.5 mb 0.02 in0.5 mm 0.00 in0.0 mm 0.16 in4.1 mm
06:52 AM 41.9°F5.5°C 41.6°F5.3°C 99% Calm Calm 5.8 mph9.3 kmh 29.93 in1013.5 mb 0.02 in0.5 mm 0.00 in0.0 mm 0.16 in4.1 mm
06:51 AM 41.9°F5.5°C 41.6°F5.3°C 99% 5.3 mph S8.5 kmh S 5.8 mph9.3 kmh 29.93 in1013.5 mb 0.02 in0.5 mm 0.00 in0.0 mm 0.16 in4.1 mm
06:50 AM 41.9°F5.5°C 41.6°F5.3°C 99% 2.7 mph ENE4.3 kmh ENE 5.8 mph9.3 kmh 29.93 in1013.5 mb 0.02 in0.5 mm 0.00 in0.0 mm 0.16 in4.1 mm
06:49 AM 41.9°F5.5°C 41.6°F5.3°C 99% Calm Calm 5.8 mph9.3 kmh 29.93 in1013.5 mb 0.02 in0.5 mm 0.00 in0.0 mm 0.16 in4.1 mm
06:48 AM 41.9°F5.5°C 41.6°F5.3°C 99% Calm Calm 5.8 mph9.3 kmh 29.93 in1013.5 mb 0.02 in0.5 mm 0.00 in0.0 mm 0.16 in4.1 mm
06:47 AM 41.9°F5.5°C 41.6°F5.3°C 99% Calm Calm 5.8 mph9.3 kmh 29.93 in1013.5 mb 0.02 in0.5 mm 0.00 in0.0 mm 0.16 in4.1 mm
06:46 AM 41.9°F5.5°C 41.6°F5.3°C 99% 1.1 mph SE1.8 kmh SE 5.8 mph9.3 kmh 29.93 in1013.5 mb 0.02 in0.5 mm 0.00 in0.0 mm 0.16 in4.1 mm
06:45 AM 41.9°F5.5°C 41.6°F5.3°C 99% 1.1 mph N1.8 kmh N 5.8 mph9.3 kmh 29.93 in1013.5 mb 0.02 in0.5 mm 0.00 in0.0 mm 0.16 in4.1 mm
06:44 AM 41.9°F5.5°C 41.6°F5.3°C 99% Calm Calm 5.8 mph9.3 kmh 29.93 in1013.5 mb 0.02 in0.5 mm 0.00 in0.0 mm 0.16 in4.1 mm
06:43 AM 41.9°F5.5°C 41.6°F5.3°C 99% Calm Calm 5.8 mph9.3 kmh 29.93 in1013.5 mb 0.02 in0.5 mm 0.00 in0.0 mm 0.16 in4.1 mm
06:42 AM 41.9°F5.5°C 41.6°F5.3°C 99% 2.2 mph ESE3.5 kmh ESE 6.8 mph10.9 kmh 29.93 in1013.5 mb 0.02 in0.5 mm 0.00 in0.0 mm 0.16 in4.1 mm
06:41 AM 41.9°F5.5°C 41.6°F5.3°C 99% 2.2 mph S3.5 kmh S 6.8 mph10.9 kmh 29.93 in1013.5 mb 0.02 in0.5 mm 0.00 in0.0 mm 0.16 in4.1 mm
06:40 AM 41.9°F5.5°C 41.6°F5.3°C 99% Calm Calm 6.8 mph10.9 kmh 29.93 in1013.5 mb 0.02 in0.5 mm 0.00 in0.0 mm 0.16 in4.1 mm
06:39 AM 41.9°F5.5°C 41.6°F5.3°C 99% Calm Calm 6.8 mph10.9 kmh 29.93 in1013.5 mb 0.02 in0.5 mm 0.00 in0.0 mm 0.16 in4.1 mm
06:38 AM 41.9°F5.5°C 41.6°F5.3°C 99% 2.7 mph N4.3 kmh N 6.8 mph10.9 kmh 29.93 in1013.5 mb 0.02 in0.5 mm 0.00 in0.0 mm 0.16 in4.1 mm
06:37 AM 41.9°F5.5°C 41.6°F5.3°C 99% 2.7 mph ESE4.3 kmh ESE 8.9 mph14.3 kmh 29.93 in1013.5 mb 0.02 in0.5 mm 0.00 in0.0 mm 0.16 in4.1 mm
06:36 AM 41.9°F5.5°C 41.6°F5.3°C 99% 2.2 mph W3.5 kmh W 8.9 mph14.3 kmh 29.93 in1013.5 mb 0.02 in0.5 mm 0.00 in0.0 mm 0.16 in4.1 mm
06:35 AM 41.9°F5.5°C 41.6°F5.3°C 99% 5.8 mph S9.3 kmh S 8.9 mph14.3 kmh 29.93 in1013.5 mb 0.02 in0.5 mm 0.00 in0.0 mm 0.16 in4.1 mm
06:34 AM 41.9°F5.5°C 41.6°F5.3°C 99% 3.7 mph N6.0 kmh N 8.9 mph14.3 kmh 29.93 in1013.5 mb 0.02 in0.5 mm 0.00 in0.0 mm 0.16 in4.1 mm
06:33 AM 41.9°F5.5°C 41.6°F5.3°C 99% 2.2 mph ENE3.5 kmh ENE 8.9 mph14.3 kmh 29.93 in1013.5 mb 0.02 in0.5 mm 0.00 in0.0 mm 0.16 in4.1 mm
06:32 AM 41.9°F5.5°C 41.6°F5.3°C 99% 6.8 mph SSE10.9 kmh SSE 8.9 mph14.3 kmh 29.93 in1013.5 mb 0.02 in0.5 mm 0.00 in0.0 mm 0.16 in4.1 mm
06:31 AM 41.9°F5.5°C 41.6°F5.3°C 99% Calm Calm 8.9 mph14.3 kmh 29.93 in1013.5 mb 0.02 in0.5 mm 0.00 in0.0 mm 0.16 in4.1 mm
06:30 AM 41.9°F5.5°C 41.6°F5.3°C 99% 5.8 mph SE9.3 kmh SE 8.9 mph14.3 kmh 29.93 in1013.5 mb 0.02 in0.5 mm 0.00 in0.0 mm 0.16 in4.1 mm
06:29 AM 42.1°F5.6°C 41.8°F5.4°C 99% 6.8 mph ESE10.9 kmh ESE 8.9 mph14.3 kmh 29.95 in1014.2 mb 0.02 in0.5 mm 0.60 in15.2 mm 0.16 in4.1 mm
06:28 AM 42.1°F5.6°C 41.8°F5.4°C 99% 8.9 mph ESE14.3 kmh ESE 8.9 mph14.3 kmh 29.95 in1014.2 mb 0.01 in0.3 mm 0.00 in0.0 mm 0.15 in3.8 mm
06:27 AM 42.1°F5.6°C 41.8°F5.4°C 99% Calm Calm 5.3 mph8.5 kmh 29.95 in1014.2 mb 0.01 in0.3 mm 0.00 in0.0 mm 0.15 in3.8 mm
06:26 AM 42.1°F5.6°C 41.8°F5.4°C 99% Calm Calm 5.3 mph8.5 kmh 29.95 in1014.2 mb 0.01 in0.3 mm 0.00 in0.0 mm 0.15 in3.8 mm
06:25 AM 42.1°F5.6°C 41.8°F5.4°C 99% Calm Calm 5.3 mph8.5 kmh 29.95 in1014.2 mb 0.01 in0.3 mm 0.00 in0.0 mm 0.15 in3.8 mm
06:24 AM 42.1°F5.6°C 41.8°F5.4°C 99% 2.7 mph N4.3 kmh N 4.7 mph7.6 kmh 29.95 in1014.2 mb 0.01 in0.3 mm 0.60 in15.2 mm 0.15 in3.8 mm
06:23 AM 42.1°F5.6°C 41.8°F5.4°C 99% 1.1 mph N1.8 kmh N 4.7 mph7.6 kmh 29.95 in1014.2 mb 0.00 in0.0 mm 0.00 in0.0 mm 0.14 in3.6 mm
06:22 AM 42.1°F5.6°C 41.8°F5.4°C 99% 2.2 mph SE3.5 kmh SE 4.7 mph7.6 kmh 29.95 in1014.2 mb 0.00 in0.0 mm 0.00 in0.0 mm 0.14 in3.6 mm
06:21 AM 42.1°F5.6°C 41.8°F5.4°C 99% 1.1 mph ESE1.8 kmh ESE 4.2 mph6.8 kmh 29.95 in1014.2 mb 0.00 in0.0 mm 0.00 in0.0 mm 0.14 in3.6 mm
06:20 AM 42.1°F5.6°C 41.8°F5.4°C 99% Calm Calm 4.2 mph6.8 kmh 29.95 in1014.2 mb 0.00 in0.0 mm 0.00 in0.0 mm 0.14 in3.6 mm
06:19 AM 42.1°F5.6°C 41.8°F5.4°C 99% 1.1 mph ESE1.8 kmh ESE 4.2 mph6.8 kmh 29.95 in1014.2 mb 0.00 in0.0 mm 0.00 in0.0 mm 0.14 in3.6 mm
06:18 AM 42.1°F5.6°C 41.8°F5.4°C 99% 2.7 mph S4.3 kmh S 4.2 mph6.8 kmh 29.95 in1014.2 mb 0.00 in0.0 mm 0.00 in0.0 mm 0.14 in3.6 mm
06:17 AM 42.1°F5.6°C 41.8°F5.4°C 99% Calm Calm 4.2 mph6.8 kmh 29.95 in1014.2 mb 0.00 in0.0 mm 0.00 in0.0 mm 0.14 in3.6 mm
06:16 AM 42.1°F5.6°C 41.8°F5.4°C 99% 1.1 mph SSE1.8 kmh SSE 4.2 mph6.8 kmh 29.95 in1014.2 mb 0.00 in0.0 mm 0.00 in0.0 mm 0.14 in3.6 mm
06:15 AM 42.1°F5.6°C 41.8°F5.4°C 99% 1.7 mph SSW2.7 kmh SSW 3.7 mph6.0 kmh 29.95 in1014.2 mb 0.00 in0.0 mm 0.00 in0.0 mm 0.14 in3.6 mm
06:14 AM 42.1°F5.6°C 41.8°F5.4°C 99% Calm Calm 3.7 mph6.0 kmh 29.95 in1014.2 mb 0.00 in0.0 mm 0.00 in0.0 mm 0.14 in3.6 mm
06:13 AM 42.1°F5.6°C 41.8°F5.4°C 99% Calm Calm 3.7 mph6.0 kmh 29.95 in1014.2 mb 0.00 in0.0 mm 0.00 in0.0 mm 0.14 in3.6 mm
06:12 AM 42.1°F5.6°C 41.8°F5.4°C 99% 3.2 mph S5.1 kmh S 3.7 mph6.0 kmh 29.95 in1014.2 mb 0.00 in0.0 mm 0.00 in0.0 mm 0.14 in3.6 mm
06:11 AM 41.9°F5.5°C 41.6°F5.3°C 99% Calm Calm 3.7 mph6.0 kmh 29.95 in1014.2 mb 0.00 in0.0 mm 0.00 in0.0 mm 0.14 in3.6 mm
06:10 AM 41.9°F5.5°C 41.6°F5.3°C 99% Calm Calm 3.7 mph6.0 kmh 29.95 in1014.2 mb 0.00 in0.0 mm 0.00 in0.0 mm 0.14 in3.6 mm
06:09 AM 41.9°F5.5°C 41.6°F5.3°C 99% Calm Calm 3.7 mph6.0 kmh 29.95 in1014.2 mb 0.00 in0.0 mm 0.00 in0.0 mm 0.14 in3.6 mm
06:08 AM 41.9°F5.5°C 41.6°F5.3°C 99% Calm Calm 3.7 mph6.0 kmh 29.95 in1014.2 mb 0.00 in0.0 mm 0.00 in0.0 mm 0.14 in3.6 mm
06:07 AM 41.9°F5.5°C 41.6°F5.3°C 99% 2.7 mph ESE4.3 kmh ESE 3.7 mph6.0 kmh 29.95 in1014.2 mb 0.00 in0.0 mm 0.00 in0.0 mm 0.14 in3.6 mm
06:06 AM 41.9°F5.5°C 41.6°F5.3°C 99% Calm Calm 2.7 mph4.3 kmh 29.95 in1014.2 mb 0.00 in0.0 mm 0.00 in0.0 mm 0.14 in3.6 mm
06:05 AM 41.9°F5.5°C 41.6°F5.3°C 99% Calm Calm 2.2 mph3.5 kmh 29.96 in1014.6 mb 0.00 in0.0 mm 0.00 in0.0 mm 0.14 in3.6 mm
06:04 AM 42.1°F5.6°C 41.8°F5.4°C 99% Calm Calm 2.2 mph3.5 kmh 29.96 in1014.6 mb 0.00 in0.0 mm 0.00 in0.0 mm 0.14 in3.6 mm
06:03 AM 42.1°F5.6°C 41.8°F5.4°C 99% Calm Calm 2.7 mph4.3 kmh 29.96 in1014.6 mb 0.00 in0.0 mm 0.00 in0.0 mm 0.14 in3.6 mm
06:02 AM 42.1°F5.6°C 41.8°F5.4°C 99% Calm Calm 2.7 mph4.3 kmh 29.96 in1014.6 mb 0.00 in0.0 mm 0.00 in0.0 mm 0.14 in3.6 mm
06:01 AM 42.1°F5.6°C 41.8°F5.4°C 99% Calm Calm 4.2 mph6.8 kmh 29.96 in1014.6 mb 0.00 in0.0 mm 0.00 in0.0 mm 0.14 in3.6 mm
06:00 AM 42.1°F5.6°C 41.8°F5.4°C 99% 1.1 mph SSE1.8 kmh SSE 4.2 mph6.8 kmh 29.96 in1014.6 mb 0.00 in0.0 mm 0.00 in0.0 mm 0.14 in3.6 mm
05:59 AM 42.1°F5.6°C 41.8°F5.4°C 99% Calm Calm 4.2 mph6.8 kmh 29.96 in1014.6 mb 0.00 in0.0 mm 0.00 in0.0 mm 0.14 in3.6 mm
05:58 AM 42.1°F5.6°C 41.8°F5.4°C 99% Calm Calm 4.2 mph6.8 kmh 29.96 in1014.6 mb 0.00 in0.0 mm 0.00 in0.0 mm 0.14 in3.6 mm
05:57 AM 42.1°F5.6°C 41.8°F5.4°C 99% Calm Calm 5.3 mph8.5 kmh 29.96 in1014.6 mb 0.00 in0.0 mm 0.00 in0.0 mm 0.14 in3.6 mm
05:56 AM 42.1°F5.6°C 41.8°F5.4°C 99% Calm Calm 5.3 mph8.5 kmh 29.96 in1014.6 mb 0.00 in0.0 mm 0.00 in0.0 mm 0.14 in3.6 mm
05:55 AM 42.1°F5.6°C 41.8°F5.4°C 99% Calm Calm 5.3 mph8.5 kmh 29.96 in1014.6 mb 0.00 in0.0 mm 0.00 in0.0 mm 0.14 in3.6 mm
05:54 AM 42.1°F5.6°C 41.8°F5.4°C 99% Calm Calm 5.3 mph8.5 kmh 29.96 in1014.6 mb 0.00 in0.0 mm 0.00 in0.0 mm 0.14 in3.6 mm
05:53 AM 42.1°F5.6°C 41.8°F5.4°C 99% 2.7 mph ESE4.3 kmh ESE 5.3 mph8.5 kmh 29.96 in1014.6 mb 0.00 in0.0 mm 0.00 in0.0 mm 0.14 in3.6 mm
05:52 AM 42.1°F5.6°C 41.8°F5.4°C 99% Calm Calm 5.3 mph8.5 kmh 29.96 in1014.6 mb 0.00 in0.0 mm 0.00 in0.0 mm 0.14 in3.6 mm
05:51 AM 42.1°F5.6°C 41.8°F5.4°C 99% 4.2 mph SW6.8 kmh SW 5.3 mph8.5 kmh 29.96 in1014.6 mb 0.00 in0.0 mm 0.00 in0.0 mm 0.14 in3.6 mm
05:50 AM 42.1°F5.6°C 41.8°F5.4°C 99% Calm Calm 5.3 mph8.5 kmh 29.96 in1014.6 mb 0.00 in0.0 mm 0.00 in0.0 mm 0.14 in3.6 mm
05:49 AM 42.1°F5.6°C 41.8°F5.4°C 99% Calm Calm 5.3 mph8.5 kmh 29.96 in1014.6 mb 0.01 in0.3 mm 0.00 in0.0 mm 0.14 in3.6 mm
05:48 AM 42.1°F5.6°C 41.8°F5.4°C 99% Calm Calm 5.3 mph8.5 kmh 29.96 in1014.6 mb 0.01 in0.3 mm 0.00 in0.0 mm 0.14 in3.6 mm
05:47 AM 42.1°F5.6°C 41.8°F5.4°C 99% 1.7 mph SE2.7 kmh SE 4.7 mph7.6 kmh 29.96 in1014.6 mb 0.01 in0.3 mm 0.00 in0.0 mm 0.14 in3.6 mm
05:46 AM 42.1°F5.6°C 41.8°F5.4°C 99% Calm Calm 4.7 mph7.6 kmh 29.96 in1014.6 mb 0.01 in0.3 mm 0.00 in0.0 mm 0.14 in3.6 mm
05:45 AM 42.1°F5.6°C 41.8°F5.4°C 99% Calm Calm 4.7 mph7.6 kmh 29.96 in1014.6 mb 0.01 in0.3 mm 0.00 in0.0 mm 0.14 in3.6 mm
05:44 AM 42.1°F5.6°C 41.8°F5.4°C 99% Calm Calm 4.7 mph7.6 kmh 29.96 in1014.6 mb 0.01 in0.3 mm 0.00 in0.0 mm 0.14 in3.6 mm
05:43 AM 42.1°F5.6°C 41.8°F5.4°C 99% Calm Calm 4.7 mph7.6 kmh 29.96 in1014.6 mb 0.01 in0.3 mm 0.00 in0.0 mm 0.14 in3.6 mm
05:42 AM 42.1°F5.6°C 41.8°F5.4°C 99% Calm Calm 4.7 mph7.6 kmh 29.96 in1014.6 mb 0.02 in0.5 mm 0.00 in0.0 mm 0.14 in3.6 mm
05:41 AM 42.1°F5.6°C 41.8°F5.4°C 99% Calm Calm 4.7 mph7.6 kmh 29.97 in1014.9 mb 0.02 in0.5 mm 0.00 in0.0 mm 0.14 in3.6 mm
05:40 AM 42.1°F5.6°C 41.8°F5.4°C 99% 4.7 mph S7.6 kmh S 4.7 mph7.6 kmh 29.97 in1014.9 mb 0.02 in0.5 mm 0.00 in0.0 mm 0.14 in3.6 mm
05:39 AM 42.1°F5.6°C 41.8°F5.4°C 99% Calm Calm 3.2 mph5.1 kmh 29.97 in1014.9 mb 0.02 in0.5 mm 0.00 in0.0 mm 0.14 in3.6 mm
05:38 AM 42.1°F5.6°C 41.8°F5.4°C 99% Calm Calm 3.7 mph6.0 kmh 29.97 in1014.9 mb 0.02 in0.5 mm 0.00 in0.0 mm 0.14 in3.6 mm
05:37 AM 42.1°F5.6°C 41.8°F5.4°C 99% Calm Calm 6.8 mph10.9 kmh 29.97 in1014.9 mb 0.03 in0.8 mm 0.00 in0.0 mm 0.14 in3.6 mm
05:36 AM 42.1°F5.6°C 41.8°F5.4°C 99% Calm Calm 6.8 mph10.9 kmh 29.97 in1014.9 mb 0.04 in1.0 mm 0.00 in0.0 mm 0.14 in3.6 mm
05:35 AM 42.1°F5.6°C 41.8°F5.4°C 99% Calm Calm 6.8 mph10.9 kmh 29.97 in1014.9 mb 0.04 in1.0 mm 0.00 in0.0 mm 0.14 in3.6 mm
05:34 AM 42.1°F5.6°C 41.8°F5.4°C 99% Calm Calm 6.8 mph10.9 kmh 29.97 in1014.9 mb 0.04 in1.0 mm 0.00 in0.0 mm 0.14 in3.6 mm
05:33 AM 42.1°F5.6°C 41.8°F5.4°C 99% Calm Calm 6.8 mph10.9 kmh 29.97 in1014.9 mb 0.04 in1.0 mm 0.00 in0.0 mm 0.14 in3.6 mm
05:32 AM 42.1°F5.6°C 41.8°F5.4°C 99% Calm Calm 6.8 mph10.9 kmh 29.97 in1014.9 mb 0.04 in1.0 mm 0.00 in0.0 mm 0.14 in3.6 mm
05:31 AM 42.1°F5.6°C 41.8°F5.4°C 99% 1.1 mph ESE1.8 kmh ESE 6.8 mph10.9 kmh 29.97 in1014.9 mb 0.04 in1.0 mm 0.00 in0.0 mm 0.14 in3.6 mm
05:30 AM 42.1°F5.6°C 41.8°F5.4°C 99% Calm Calm 6.8 mph10.9 kmh 29.97 in1014.9 mb 0.05 in1.3 mm 0.00 in0.0 mm 0.14 in3.6 mm
05:29 AM 42.1°F5.6°C 41.8°F5.4°C 99% Calm Calm 6.8 mph10.9 kmh 29.97 in1014.9 mb 0.05 in1.3 mm 0.00 in0.0 mm 0.14 in3.6 mm
05:28 AM 42.1°F5.6°C 41.8°F5.4°C 99% Calm Calm 6.8 mph10.9 kmh 29.97 in1014.9 mb 0.05 in1.3 mm 0.00 in0.0 mm 0.14 in3.6 mm
05:27 AM 42.1°F5.6°C 41.8°F5.4°C 99% 6.8 mph SSE10.9 kmh SSE 6.8 mph10.9 kmh 29.97 in1014.9 mb 0.06 in1.5 mm 0.00 in0.0 mm 0.14 in3.6 mm
05:26 AM 42.1°F5.6°C 41.8°F5.4°C 99% Calm Calm 3.2 mph5.1 kmh 29.97 in1014.9 mb 0.06 in1.5 mm 0.00 in0.0 mm 0.14 in3.6 mm
05:25 AM 42.1°F5.6°C 41.8°F5.4°C 99% Calm Calm 3.2 mph5.1 kmh 29.97 in1014.9 mb 0.06 in1.5 mm 0.00 in0.0 mm 0.14 in3.6 mm
05:24 AM 42.1°F5.6°C 41.8°F5.4°C 99% 2.2 mph S3.5 kmh S 2.7 mph4.3 kmh 29.97 in1014.9 mb 0.06 in1.5 mm 0.00 in0.0 mm 0.14 in3.6 mm
05:23 AM 42.1°F5.6°C 41.8°F5.4°C 99% Calm Calm 2.7 mph4.3 kmh 29.97 in1014.9 mb 0.06 in1.5 mm 0.00 in0.0 mm 0.14 in3.6 mm
05:22 AM 42.1°F5.6°C 41.8°F5.4°C 99% Calm Calm 4.7 mph7.6 kmh 29.97 in1014.9 mb 0.06 in1.5 mm 0.00 in0.0 mm 0.14 in3.6 mm
05:21 AM 42.1°F5.6°C 41.8°F5.4°C 99% Calm Calm 4.7 mph7.6 kmh 29.97 in1014.9 mb 0.06 in1.5 mm 0.00 in0.0 mm 0.14 in3.6 mm
05:20 AM 42.1°F5.6°C 41.8°F5.4°C 99% Calm Calm 4.7 mph7.6 kmh 29.97 in1014.9 mb 0.06 in1.5 mm 0.00 in0.0 mm 0.14 in3.6 mm
05:19 AM 42.1°F5.6°C 41.8°F5.4°C 99% 1.1 mph SE1.8 kmh SE 4.7 mph7.6 kmh 29.97 in1014.9 mb 0.07 in1.8 mm 0.00 in0.0 mm 0.14 in3.6 mm
05:18 AM 42.1°F5.6°C 41.8°F5.4°C 99% Calm Calm 4.7 mph7.6 kmh 29.97 in1014.9 mb 0.07 in1.8 mm 0.00 in0.0 mm 0.14 in3.6 mm
05:17 AM 42.1°F5.6°C 41.8°F5.4°C 99% 2.2 mph NE3.5 kmh NE 4.7 mph7.6 kmh 29.98 in1015.2 mb 0.07 in1.8 mm 0.00 in0.0 mm 0.14 in3.6 mm
05:16 AM 42.1°F5.6°C 41.8°F5.4°C 99% Calm Calm 4.7 mph7.6 kmh 29.98 in1015.2 mb 0.07 in1.8 mm 0.00 in0.0 mm 0.14 in3.6 mm
05:15 AM 42.1°F5.6°C 41.8°F5.4°C 99% Calm Calm 4.7 mph7.6 kmh 29.98 in1015.2 mb 0.08 in2.0 mm 0.00 in0.0 mm 0.14 in3.6 mm
05:14 AM 42.1°F5.6°C 41.8°F5.4°C 99% Calm Calm 4.7 mph7.6 kmh 29.98 in1015.2 mb 0.08 in2.0 mm 0.00 in0.0 mm 0.14 in3.6 mm
05:13 AM 42.1°F5.6°C 41.8°F5.4°C 99% Calm Calm 4.7 mph7.6 kmh 29.98 in1015.2 mb 0.08 in2.0 mm 0.00 in0.0 mm 0.14 in3.6 mm
05:12 AM 42.1°F5.6°C 41.8°F5.4°C 99% 3.2 mph SSW5.1 kmh SSW 3.7 mph6.0 kmh 29.98 in1015.2 mb 0.08 in2.0 mm 0.00 in0.0 mm 0.14 in3.6 mm
05:11 AM 42.1°F5.6°C 41.8°F5.4°C 99% Calm Calm 3.2 mph5.1 kmh 29.98 in1015.2 mb 0.08 in2.0 mm 0.00 in0.0 mm 0.14 in3.6 mm
05:10 AM 42.1°F5.6°C 41.8°F5.4°C 99% 1.1 mph S1.8 kmh S 3.2 mph5.1 kmh 29.98 in1015.2 mb 0.08 in2.0 mm 0.00 in0.0 mm 0.14 in3.6 mm
05:09 AM 42.1°F5.6°C 41.8°F5.4°C 99% Calm Calm 3.2 mph5.1 kmh 29.98 in1015.2 mb 0.08 in2.0 mm 0.00 in0.0 mm 0.14 in3.6 mm
05:08 AM 42.1°F5.6°C 41.8°F5.4°C 99% 1.1 mph S1.8 kmh S 3.2 mph5.1 kmh 29.98 in1015.2 mb 0.08 in2.0 mm 0.00 in0.0 mm 0.14 in3.6 mm
05:07 AM 42.1°F5.6°C 41.8°F5.4°C 99% Calm Calm 3.2 mph5.1 kmh 29.98 in1015.2 mb 0.08 in2.0 mm 0.00 in0.0 mm 0.14 in3.6 mm
05:06 AM 42.1°F5.6°C 41.8°F5.4°C 99% Calm Calm 3.2 mph5.1 kmh 29.98 in1015.2 mb 0.08 in2.0 mm 0.00 in0.0 mm 0.14 in3.6 mm
05:05 AM 42.1°F5.6°C 41.8°F5.4°C 99% 2.7 mph SSW4.3 kmh SSW 3.2 mph5.1 kmh 29.98 in1015.2 mb 0.08 in2.0 mm 0.00 in0.0 mm 0.14 in3.6 mm
05:04 AM 42.1°F5.6°C 41.8°F5.4°C 99% Calm Calm 3.2 mph5.1 kmh 29.98 in1015.2 mb 0.08 in2.0 mm 0.00 in0.0 mm 0.14 in3.6 mm
05:03 AM 42.1°F5.6°C 41.8°F5.4°C 99% Calm Calm 3.2 mph5.1 kmh 29.98 in1015.2 mb 0.09 in2.3 mm 0.00 in0.0 mm 0.14 in3.6 mm
05:02 AM 42.1°F5.6°C 41.8°F5.4°C 99% Calm Calm 3.2 mph5.1 kmh 29.98 in1015.2 mb 0.09 in2.3 mm 0.00 in0.0 mm 0.14 in3.6 mm
05:01 AM 42.1°F5.6°C 41.8°F5.4°C 99% 3.2 mph S5.1 kmh S 3.2 mph5.1 kmh 29.98 in1015.2 mb 0.09 in2.3 mm 0.00 in0.0 mm 0.14 in3.6 mm
05:00 AM 41.9°F5.5°C 41.6°F5.3°C 99% Calm Calm -- 29.98 in1015.2 mb 0.10 in2.5 mm 0.00 in0.0 mm 0.14 in3.6 mm
04:59 AM 41.9°F5.5°C 41.6°F5.3°C 99% Calm Calm -- 29.98 in1015.2 mb 0.10 in2.5 mm 0.00 in0.0 mm 0.14 in3.6 mm
04:58 AM 41.9°F5.5°C 41.6°F5.3°C 99% Calm Calm -- 29.98 in1015.2 mb 0.10 in2.5 mm 0.00 in0.0 mm 0.14 in3.6 mm
04:57 AM 41.9°F5.5°C 41.6°F5.3°C 99% Calm Calm 1.1 mph1.8 kmh 29.98 in1015.2 mb 0.10 in2.5 mm 0.00 in0.0 mm 0.14 in3.6 mm
04:56 AM 41.9°F5.5°C 41.6°F5.3°C 99% Calm Calm 1.1 mph1.8 kmh 29.98 in1015.2 mb 0.10 in2.5 mm 0.00 in0.0 mm 0.14 in3.6 mm
04:55 AM 41.9°F5.5°C 41.6°F5.3°C 99% Calm Calm 1.1 mph1.8 kmh 29.98 in1015.2 mb 0.10 in2.5 mm 0.00 in0.0 mm 0.14 in3.6 mm
04:54 AM 41.9°F5.5°C 41.6°F5.3°C 99% Calm Calm 1.1 mph1.8 kmh 29.98 in1015.2 mb 0.10 in2.5 mm 0.00 in0.0 mm 0.14 in3.6 mm
04:53 AM 41.9°F5.5°C 41.6°F5.3°C 99% Calm Calm 1.1 mph1.8 kmh 29.98 in1015.2 mb 0.10 in2.5 mm 0.00 in0.0 mm 0.14 in3.6 mm
04:52 AM 41.9°F5.5°C 41.6°F5.3°C 99% Calm Calm 1.1 mph1.8 kmh 29.98 in1015.2 mb 0.10 in2.5 mm 0.00 in0.0 mm 0.14 in3.6 mm
04:51 AM 41.9°F5.5°C 41.6°F5.3°C 99% Calm Calm 1.1 mph1.8 kmh 29.98 in1015.2 mb 0.10 in2.5 mm 0.00 in0.0 mm 0.14 in3.6 mm
04:50 AM 41.9°F5.5°C 41.6°F5.3°C 99% Calm Calm 1.7 mph2.7 kmh 29.98 in1015.2 mb 0.10 in2.5 mm 0.60 in15.2 mm 0.14 in3.6 mm
04:49 AM 41.9°F5.5°C 41.6°F5.3°C 99% Calm Calm 1.7 mph2.7 kmh 29.98 in1015.2 mb 0.09 in2.3 mm 0.00 in0.0 mm 0.13 in3.3 mm
04:48 AM 41.9°F5.5°C 41.6°F5.3°C 99% 1.1 mph SW1.8 kmh SW 1.7 mph2.7 kmh 29.98 in1015.2 mb 0.09 in2.3 mm 0.00 in0.0 mm 0.13 in3.3 mm
04:47 AM 41.9°F5.5°C 41.6°F5.3°C 99% Calm Calm 1.7 mph2.7 kmh 29.98 in1015.2 mb 0.09 in2.3 mm 0.00 in0.0 mm 0.13 in3.3 mm
04:46 AM 41.9°F5.5°C 41.6°F5.3°C 99% Calm Calm 1.7 mph2.7 kmh 29.98 in1015.2 mb 0.09 in2.3 mm 0.00 in0.0 mm 0.13 in3.3 mm
04:45 AM 41.9°F5.5°C 41.6°F5.3°C 99% Calm Calm 1.7 mph2.7 kmh 29.98 in1015.2 mb 0.09 in2.3 mm 0.00 in0.0 mm 0.13 in3.3 mm
04:44 AM 41.9°F5.5°C 41.6°F5.3°C 99% Calm Calm 1.7 mph2.7 kmh 29.98 in1015.2 mb 0.09 in2.3 mm 0.00 in0.0 mm 0.13 in3.3 mm
04:43 AM 41.9°F5.5°C 41.6°F5.3°C 99% Calm Calm 1.7 mph2.7 kmh 29.98 in1015.2 mb 0.09 in2.3 mm 0.60 in15.2 mm 0.13 in3.3 mm
04:42 AM 41.9°F5.5°C 41.6°F5.3°C 99% Calm Calm 1.7 mph2.7 kmh 29.98 in1015.2 mb 0.08 in2.0 mm 0.00 in0.0 mm 0.12 in3.0 mm
04:41 AM 41.9°F5.5°C 41.6°F5.3°C 99% Calm Calm 1.7 mph2.7 kmh 29.98 in1015.2 mb 0.08 in2.0 mm 0.00 in0.0 mm 0.12 in3.0 mm
04:40 AM 41.9°F5.5°C 41.6°F5.3°C 99% Calm Calm -- 29.98 in1015.2 mb 0.08 in2.0 mm 0.00 in0.0 mm 0.12 in3.0 mm
04:39 AM 41.9°F5.5°C 41.6°F5.3°C 99% Calm Calm -- 29.98 in1015.2 mb 0.08 in2.0 mm 0.00 in0.0 mm 0.12 in3.0 mm
04:38 AM 41.9°F5.5°C 41.6°F5.3°C 99% Calm Calm -- 29.98 in1015.2 mb 0.08 in2.0 mm 0.60 in15.2 mm 0.12 in3.0 mm
04:37 AM 41.7°F5.4°C 41.5°F5.3°C 99% Calm Calm -- 29.98 in1015.2 mb 0.07 in1.8 mm 0.60 in15.2 mm 0.11 in2.8 mm
04:36 AM 41.7°F5.4°C 41.5°F5.3°C 99% Calm Calm -- 29.98 in1015.2 mb 0.06 in1.5 mm 0.00 in0.0 mm 0.10 in2.5 mm
04:35 AM 41.7°F5.4°C 41.5°F5.3°C 99% Calm Calm -- 29.98 in1015.2 mb 0.06 in1.5 mm 0.00 in0.0 mm 0.10 in2.5 mm
04:34 AM 41.7°F5.4°C 41.5°F5.3°C 99% Calm Calm -- 29.98 in1015.2 mb 0.06 in1.5 mm 0.00 in0.0 mm 0.10 in2.5 mm
04:33 AM 41.7°F5.4°C 41.5°F5.3°C 99% Calm Calm -- 29.98 in1015.2 mb 0.06 in1.5 mm 0.00 in0.0 mm 0.10 in2.5 mm
04:32 AM 41.7°F5.4°C 41.5°F5.3°C 99% Calm Calm -- 29.98 in1015.2 mb 0.06 in1.5 mm 0.00 in0.0 mm 0.10 in2.5 mm
04:31 AM 41.7°F5.4°C 41.5°F5.3°C 99% Calm Calm -- 29.98 in1015.2 mb 0.06 in1.5 mm 0.00 in0.0 mm 0.10 in2.5 mm
04:30 AM 41.7°F5.4°C 41.5°F5.3°C 99% Calm Calm -- 29.98 in1015.2 mb 0.06 in1.5 mm 0.60 in15.2 mm 0.10 in2.5 mm
04:29 AM 41.7°F5.4°C 41.5°F5.3°C 99% Calm Calm -- 29.97 in1014.9 mb 0.05 in1.3 mm 0.00 in0.0 mm 0.09 in2.3 mm
04:28 AM 41.7°F5.4°C 41.5°F5.3°C 99% Calm Calm -- 29.97 in1014.9 mb 0.05 in1.3 mm 0.60 in15.2 mm 0.09 in2.3 mm
04:27 AM 41.7°F5.4°C 41.5°F5.3°C 99% Calm Calm -- 29.97 in1014.9 mb 0.04 in1.0 mm 0.00 in0.0 mm 0.08 in2.0 mm
04:26 AM 41.7°F5.4°C 41.5°F5.3°C 99% Calm Calm -- 29.97 in1014.9 mb 0.04 in1.0 mm 0.00 in0.0 mm 0.08 in2.0 mm
04:25 AM 41.7°F5.4°C 41.5°F5.3°C 99% Calm Calm -- 29.97 in1014.9 mb 0.04 in1.0 mm 0.00 in0.0 mm 0.08 in2.0 mm
04:24 AM 41.7°F5.4°C 41.5°F5.3°C 99% Calm Calm -- 29.97 in1014.9 mb 0.04 in1.0 mm 0.00 in0.0 mm 0.08 in2.0 mm
04:23 AM 41.7°F5.4°C 41.5°F5.3°C 99% Calm Calm -- 29.97 in1014.9 mb 0.04 in1.0 mm 0.00 in0.0 mm 0.08 in2.0 mm
04:22 AM 41.7°F5.4°C 41.5°F5.3°C 99% Calm Calm -- 29.97 in1014.9 mb 0.04 in1.0 mm 0.00 in0.0 mm 0.08 in2.0 mm
04:21 AM 41.7°F5.4°C 41.5°F5.3°C 99% Calm Calm -- 29.97 in1014.9 mb 0.04 in1.0 mm 0.00 in0.0 mm 0.08 in2.0 mm
04:20 AM 41.7°F5.4°C 41.5°F5.3°C 99% Calm Calm -- 29.97 in1014.9 mb 0.04 in1.0 mm 0.00 in0.0 mm 0.08 in2.0 mm
04:19 AM 41.7°F5.4°C 41.5°F5.3°C 99% Calm Calm -- 29.97 in1014.9 mb 0.04 in1.0 mm 0.60 in15.2 mm 0.08 in2.0 mm
04:18 AM 41.7°F5.4°C 41.5°F5.3°C 99% Calm Calm -- 29.97 in1014.9 mb 0.03 in0.8 mm 0.00 in0.0 mm 0.07 in1.8 mm
04:17 AM 41.7°F5.4°C 41.5°F5.3°C 99% Calm Calm -- 29.97 in1014.9 mb 0.04 in1.0 mm 0.00 in0.0 mm 0.07 in1.8 mm
04:16 AM 41.7°F5.4°C 41.5°F5.3°C 99% Calm Calm -- 29.97 in1014.9 mb 0.04 in1.0 mm 0.60 in15.2 mm 0.07 in1.8 mm
04:15 AM 41.7°F5.4°C 41.5°F5.3°C 99% Calm Calm -- 29.97 in1014.9 mb 0.03 in0.8 mm 0.00 in0.0 mm 0.06 in1.5 mm
04:14 AM 41.7°F5.4°C 41.5°F5.3°C 99% Calm Calm -- 29.97 in1014.9 mb 0.03 in0.8 mm 0.00 in0.0 mm 0.06 in1.5 mm
04:13 AM 41.7°F5.4°C 41.5°F5.3°C 99% Calm Calm -- 29.97 in1014.9 mb 0.03 in0.8 mm 0.00 in0.0 mm 0.06 in1.5 mm
04:12 AM 41.7°F5.4°C 41.5°F5.3°C 99% Calm Calm -- 29.97 in1014.9 mb 0.03 in0.8 mm 0.00 in0.0 mm 0.06 in1.5 mm
04:11 AM 41.7°F5.4°C 41.5°F5.3°C 99% Calm Calm -- 29.97 in1014.9 mb 0.04 in1.0 mm 0.00 in0.0 mm 0.06 in1.5 mm
04:10 AM 41.7°F5.4°C 41.5°F5.3°C 99% Calm Calm -- 29.97 in1014.9 mb 0.04 in1.0 mm 0.00 in0.0 mm 0.06 in1.5 mm
04:09 AM 41.7°F5.4°C 41.5°F5.3°C 99% Calm Calm -- 29.97 in1014.9 mb 0.04 in1.0 mm 0.00 in0.0 mm 0.06 in1.5 mm
04:08 AM 41.7°F5.4°C 41.5°F5.3°C 99% Calm Calm -- 29.97 in1014.9 mb 0.04 in1.0 mm 0.00 in0.0 mm 0.06 in1.5 mm
04:07 AM 41.7°F5.4°C 41.5°F5.3°C 99% Calm Calm -- 29.97 in1014.9 mb 0.04 in1.0 mm 0.00 in0.0 mm 0.06 in1.5 mm
04:06 AM 41.7°F5.4°C 41.5°F5.3°C 99% Calm Calm -- 29.97 in1014.9 mb 0.04 in1.0 mm 0.00 in0.0 mm 0.06 in1.5 mm
04:05 AM 41.7°F5.4°C 41.5°F5.3°C 99% Calm Calm -- 29.97 in1014.9 mb 0.04 in1.0 mm 0.00 in0.0 mm 0.06 in1.5 mm
04:04 AM 41.7°F5.4°C 41.5°F5.3°C 99% Calm Calm -- 29.97 in1014.9 mb 0.04 in1.0 mm 0.60 in15.2 mm 0.06 in1.5 mm
04:03 AM 41.7°F5.4°C 41.5°F5.3°C 99% Calm Calm -- 29.97 in1014.9 mb 0.03 in0.8 mm 0.00 in0.0 mm 0.05 in1.3 mm
04:02 AM 41.7°F5.4°C 41.5°F5.3°C 99% Calm Calm -- 29.97 in1014.9 mb 0.03 in0.8 mm 0.00 in0.0 mm 0.05 in1.3 mm
04:01 AM 41.7°F5.4°C 41.5°F5.3°C 99% Calm Calm -- 29.97 in1014.9 mb 0.03 in0.8 mm 0.60 in15.2 mm 0.05 in1.3 mm
04:00 AM 41.7°F5.4°C 41.5°F5.3°C 99% Calm Calm -- 29.97 in1014.9 mb 0.02 in0.5 mm 0.00 in0.0 mm 0.04 in1.0 mm
03:59 AM 41.7°F5.4°C 41.5°F5.3°C 99% Calm Calm -- 29.97 in1014.9 mb 0.02 in0.5 mm 0.00 in0.0 mm 0.04 in1.0 mm
03:58 AM 41.7°F5.4°C 41.5°F5.3°C 99% Calm Calm -- 29.97 in1014.9 mb 0.02 in0.5 mm 0.00 in0.0 mm 0.04 in1.0 mm
03:57 AM 41.7°F5.4°C 41.5°F5.3°C 99% Calm Calm -- 29.97 in1014.9 mb 0.02 in0.5 mm 0.00 in0.0 mm 0.04 in1.0 mm
03:56 AM 41.7°F5.4°C 41.5°F5.3°C 99% Calm Calm -- 29.97 in1014.9 mb 0.02 in0.5 mm 0.00 in0.0 mm 0.04 in1.0 mm
03:55 AM 41.7°F5.4°C 41.5°F5.3°C 99% Calm Calm -- 29.97 in1014.9 mb 0.02 in0.5 mm 0.00 in0.0 mm 0.04 in1.0 mm
03:54 AM 41.7°F5.4°C 41.5°F5.3°C 99% Calm Calm -- 29.97 in1014.9 mb 0.02 in0.5 mm 0.00 in0.0 mm 0.04 in1.0 mm
03:53 AM 41.7°F5.4°C 41.5°F5.3°C 99% Calm Calm -- 29.97 in1014.9 mb 0.02 in0.5 mm 0.00 in0.0 mm 0.04 in1.0 mm
03:52 AM 41.7°F5.4°C 41.5°F5.3°C 99% Calm Calm -- 29.97 in1014.9 mb 0.02 in0.5 mm 0.00 in0.0 mm 0.04 in1.0 mm
03:51 AM 41.7°F5.4°C 41.5°F5.3°C 99% Calm Calm -- 29.97 in1014.9 mb 0.02 in0.5 mm 0.00 in0.0 mm 0.04 in1.0 mm
03:50 AM 41.5°F5.3°C 41.3°F5.2°C 99% Calm Calm -- 29.97 in1014.9 mb 0.02 in0.5 mm 0.00 in0.0 mm 0.04 in1.0 mm
03:49 AM 41.5°F5.3°C 41.3°F5.2°C 99% Calm Calm -- 29.97 in1014.9 mb 0.02 in0.5 mm 0.00 in0.0 mm 0.04 in1.0 mm
03:48 AM 41.5°F5.3°C 41.3°F5.2°C 99% Calm Calm -- 29.97 in1014.9 mb 0.02 in0.5 mm 0.00 in0.0 mm 0.04 in1.0 mm
03:47 AM 41.5°F5.3°C 41.3°F5.2°C 99% Calm Calm -- 29.97 in1014.9 mb 0.02 in0.5 mm 0.00 in0.0 mm 0.04 in1.0 mm
03:46 AM 41.5°F5.3°C 41.3°F5.2°C 99% Calm Calm -- 29.97 in1014.9 mb 0.02 in0.5 mm 0.00 in0.0 mm 0.04 in1.0 mm
03:45 AM 41.5°F5.3°C 41.3°F5.2°C 99% Calm Calm -- 29.97 in1014.9 mb 0.02 in0.5 mm 0.00 in0.0 mm 0.04 in1.0 mm
03:44 AM 41.5°F5.3°C 41.3°F5.2°C 99% Calm Calm -- 29.97 in1014.9 mb 0.02 in0.5 mm 0.00 in0.0 mm 0.04 in1.0 mm
03:43 AM 41.5°F5.3°C 41.3°F5.2°C 99% Calm Calm -- 29.97 in1014.9 mb 0.02 in0.5 mm 0.00 in0.0 mm 0.04 in1.0 mm
03:42 AM 41.5°F5.3°C 41.3°F5.2°C 99% Calm Calm -- 29.97 in1014.9 mb 0.02 in0.5 mm 0.00 in0.0 mm 0.04 in1.0 mm
03:41 AM 41.5°F5.3°C 41.3°F5.2°C 99% Calm Calm -- 29.97 in1014.9 mb 0.02 in0.5 mm 0.00 in0.0 mm 0.04 in1.0 mm
03:40 AM 41.5°F5.3°C 41.3°F5.2°C 99% Calm Calm -- 29.97 in1014.9 mb 0.02 in0.5 mm 0.00 in0.0 mm 0.04 in1.0 mm
03:39 AM 41.5°F5.3°C 41.3°F5.2°C 99% Calm Calm -- 29.97 in1014.9 mb 0.02 in0.5 mm 0.00 in0.0 mm 0.04 in1.0 mm
03:38 AM 41.5°F5.3°C 41.3°F5.2°C 99% Calm Calm -- 29.97 in1014.9 mb 0.02 in0.5 mm 0.00 in0.0 mm 0.04 in1.0 mm
03:37 AM 41.5°F5.3°C 41.3°F5.2°C 99% Calm Calm -- 29.97 in1014.9 mb 0.02 in0.5 mm 0.00 in0.0 mm 0.04 in1.0 mm
03:36 AM 41.5°F5.3°C 41.3°F5.2°C 99% Calm Calm -- 29.97 in1014.9 mb 0.02 in0.5 mm 0.00 in0.0 mm 0.04 in1.0 mm
03:35 AM 41.5°F5.3°C 41.3°F5.2°C 99% Calm Calm -- 29.97 in1014.9 mb 0.02 in0.5 mm 0.00 in0.0 mm 0.04 in1.0 mm
03:34 AM 41.5°F5.3°C 41.3°F5.2°C 99% Calm Calm -- 29.97 in1014.9 mb 0.02 in0.5 mm 0.00 in0.0 mm 0.04 in1.0 mm
03:33 AM 41.5°F5.3°C 41.3°F5.2°C 99% Calm Calm -- 29.97 in1014.9 mb 0.02 in0.5 mm 0.00 in0.0 mm 0.04 in1.0 mm
03:32 AM 41.5°F5.3°C 41.3°F5.2°C 99% Calm Calm -- 29.97 in1014.9 mb 0.02 in0.5 mm 0.00 in0.0 mm 0.04 in1.0 mm
03:31 AM 41.5°F5.3°C 41.3°F5.2°C 99% Calm Calm -- 29.97 in1014.9 mb 0.02 in0.5 mm 0.00 in0.0 mm 0.04 in1.0 mm
03:30 AM 41.5°F5.3°C 41.3°F5.2°C 99% Calm Calm -- 29.97 in1014.9 mb 0.02 in0.5 mm 0.00 in0.0 mm 0.04 in1.0 mm
03:29 AM 41.5°F5.3°C 41.3°F5.2°C 99% Calm Calm -- 29.97 in1014.9 mb 0.02 in0.5 mm 0.00 in0.0 mm 0.04 in1.0 mm
03:28 AM 41.5°F5.3°C 41.3°F5.2°C 99% Calm Calm -- 29.98 in1015.2 mb 0.02 in0.5 mm 0.00 in0.0 mm 0.04 in1.0 mm
03:27 AM 41.5°F5.3°C 41.3°F5.2°C 99% Calm Calm -- 29.98 in1015.2 mb 0.02 in0.5 mm 0.00 in0.0 mm 0.04 in1.0 mm
03:26 AM 41.5°F5.3°C 41.3°F5.2°C 99% Calm Calm -- 29.98 in1015.2 mb 0.02 in0.5 mm 0.00 in0.0 mm 0.04 in1.0 mm
03:25 AM 41.5°F5.3°C 41.3°F5.2°C 99% Calm Calm -- 29.98 in1015.2 mb 0.02 in0.5 mm 0.00 in0.0 mm 0.04 in1.0 mm
03:24 AM 41.5°F5.3°C 41.3°F5.2°C 99% Calm Calm -- 29.98 in1015.2 mb 0.02 in0.5 mm 0.00 in0.0 mm 0.04 in1.0 mm
03:23 AM 41.5°F5.3°C 41.3°F5.2°C 99% Calm Calm -- 29.98 in1015.2 mb 0.02 in0.5 mm 0.00 in0.0 mm 0.04 in1.0 mm
03:22 AM 41.5°F5.3°C 41.3°F5.2°C 99% Calm Calm -- 29.98 in1015.2 mb 0.02 in0.5 mm 0.00 in0.0 mm 0.04 in1.0 mm
03:21 AM 41.5°F5.3°C 41.3°F5.2°C 99% Calm Calm -- 29.98 in1015.2 mb 0.02 in0.5 mm 0.00 in0.0 mm 0.04 in1.0 mm
03:20 AM 41.5°F5.3°C 41.3°F5.2°C 99% Calm Calm -- 29.98 in1015.2 mb 0.02 in0.5 mm 0.00 in0.0 mm 0.04 in1.0 mm
03:19 AM 41.4°F5.2°C 41.1°F5.1°C 99% Calm Calm -- 29.98 in1015.2 mb 0.02 in0.5 mm 0.00 in0.0 mm 0.04 in1.0 mm
03:18 AM 41.4°F5.2°C 41.1°F5.1°C 99% Calm Calm -- 29.98 in1015.2 mb 0.02 in0.5 mm 0.00 in0.0 mm 0.04 in1.0 mm
03:17 AM 41.4°F5.2°C 41.1°F5.1°C 99% Calm Calm -- 29.98 in1015.2 mb 0.02 in0.5 mm 0.60 in15.2 mm 0.04 in1.0 mm
03:16 AM 41.4°F5.2°C 41.1°F5.1°C 99% Calm Calm -- 29.98 in1015.2 mb 0.01 in0.3 mm 0.00 in0.0 mm 0.03 in0.8 mm
03:15 AM 41.4°F5.2°C 41.1°F5.1°C 99% Calm Calm -- 29.98 in1015.2 mb 0.01 in0.3 mm 0.00 in0.0 mm 0.03 in0.8 mm
03:14 AM 41.4°F5.2°C 41.1°F5.1°C 99% Calm Calm -- 29.98 in1015.2 mb 0.01 in0.3 mm 0.00 in0.0 mm 0.03 in0.8 mm
03:13 AM 41.4°F5.2°C 41.1°F5.1°C 99% Calm Calm -- 29.98 in1015.2 mb 0.01 in0.3 mm 0.00 in0.0 mm 0.03 in0.8 mm
03:12 AM 41.4°F5.2°C 41.1°F5.1°C 99% Calm Calm -- 29.98 in1015.2 mb 0.01 in0.3 mm 0.60 in15.2 mm 0.03 in0.8 mm
03:11 AM 41.4°F5.2°C 41.1°F5.1°C 99% Calm Calm -- 29.98 in1015.2 mb 0.00 in0.0 mm 0.00 in0.0 mm 0.02 in0.5 mm
03:10 AM 41.4°F5.2°C 41.1°F5.1°C 99% Calm Calm -- 29.98 in1015.2 mb 0.00 in0.0 mm 0.00 in0.0 mm 0.02 in0.5 mm
03:09 AM 41.4°F5.2°C 41.1°F5.1°C 99% Calm Calm -- 29.98 in1015.2 mb 0.00 in0.0 mm 0.00 in0.0 mm 0.02 in0.5 mm
03:08 AM 41.4°F5.2°C 41.1°F5.1°C 99% Calm Calm -- 29.98 in1015.2 mb 0.00 in0.0 mm 0.00 in0.0 mm 0.02 in0.5 mm
03:07 AM 41.4°F5.2°C 41.1°F5.1°C 99% Calm Calm -- 29.98 in1015.2 mb 0.00 in0.0 mm 0.00 in0.0 mm 0.02 in0.5 mm
03:06 AM 41.4°F5.2°C 41.1°F5.1°C 99% Calm Calm -- 29.98 in1015.2 mb 0.00 in0.0 mm 0.00 in0.0 mm 0.02 in0.5 mm
03:05 AM 41.4°F5.2°C 41.1°F5.1°C 99% Calm Calm -- 29.98 in1015.2 mb 0.00 in0.0 mm 0.00 in0.0 mm 0.02 in0.5 mm
03:04 AM 41.4°F5.2°C 41.1°F5.1°C 99% Calm Calm -- 29.98 in1015.2 mb 0.00 in0.0 mm 0.00 in0.0 mm 0.02 in0.5 mm
03:03 AM 41.4°F5.2°C 41.1°F5.1°C 99% Calm Calm -- 29.98 in1015.2 mb 0.00 in0.0 mm 0.00 in0.0 mm 0.02 in0.5 mm
03:02 AM 41.4°F5.2°C 41.1°F5.1°C 99% Calm Calm -- 29.98 in1015.2 mb 0.00 in0.0 mm 0.00 in0.0 mm 0.02 in0.5 mm
03:01 AM 41.4°F5.2°C 41.1°F5.1°C 99% Calm Calm -- 29.98 in1015.2 mb 0.00 in0.0 mm 0.00 in0.0 mm 0.02 in0.5 mm
03:00 AM 41.4°F5.2°C 41.1°F5.1°C 99% Calm Calm -- 29.98 in1015.2 mb 0.00 in0.0 mm 0.00 in0.0 mm 0.02 in0.5 mm
02:59 AM 41.4°F5.2°C 41.1°F5.1°C 99% Calm Calm -- 29.98 in1015.2 mb 0.00 in0.0 mm 0.00 in0.0 mm 0.02 in0.5 mm
02:58 AM 41.4°F5.2°C 41.1°F5.1°C 99% Calm Calm -- 29.98 in1015.2 mb 0.00 in0.0 mm 0.00 in0.0 mm 0.02 in0.5 mm
02:57 AM 41.4°F5.2°C 41.1°F5.1°C 99% Calm Calm -- 29.98 in1015.2 mb 0.00 in0.0 mm 0.00 in0.0 mm 0.02 in0.5 mm
02:56 AM 41.4°F5.2°C 41.1°F5.1°C 99% Calm Calm -- 29.98 in1015.2 mb 0.00 in0.0 mm 0.00 in0.0 mm 0.02 in0.5 mm
02:55 AM 41.4°F5.2°C 41.1°F5.1°C 99% Calm Calm -- 29.98 in1015.2 mb 0.00 in0.0 mm 0.00 in0.0 mm 0.02 in0.5 mm
02:54 AM 41.4°F5.2°C 41.1°F5.1°C 99% Calm Calm -- 29.98 in1015.2 mb 0.00 in0.0 mm 0.00 in0.0 mm 0.02 in0.5 mm
02:53 AM 41.4°F5.2°C 41.1°F5.1°C 99% Calm Calm -- 29.99 in1015.6 mb 0.00 in0.0 mm 0.00 in0.0 mm 0.02 in0.5 mm
02:52 AM 41.4°F5.2°C 41.1°F5.1°C 99% Calm Calm -- 29.99 in1015.6 mb 0.00 in0.0 mm 0.00 in0.0 mm 0.02 in0.5 mm
02:51 AM 41.4°F5.2°C 41.1°F5.1°C 99% Calm Calm -- 29.99 in1015.6 mb 0.00 in0.0 mm 0.00 in0.0 mm 0.02 in0.5 mm
02:50 AM 41.4°F5.2°C 41.1°F5.1°C 99% Calm Calm -- 29.99 in1015.6 mb 0.00 in0.0 mm 0.00 in0.0 mm 0.02 in0.5 mm
02:49 AM 41.4°F5.2°C 41.1°F5.1°C 99% Calm Calm -- 29.99 in1015.6 mb 0.00 in0.0 mm 0.00 in0.0 mm 0.02 in0.5 mm
02:48 AM 41.4°F5.2°C 41.1°F5.1°C 99% Calm Calm -- 29.99 in1015.6 mb 0.00 in0.0 mm 0.00 in0.0 mm 0.02 in0.5 mm
02:47 AM 41.4°F5.2°C 41.1°F5.1°C 99% Calm Calm -- 29.99 in1015.6 mb 0.00 in0.0 mm 0.00 in0.0 mm 0.02 in0.5 mm
02:46 AM 41.4°F5.2°C 41.1°F5.1°C 99% Calm Calm -- 29.99 in1015.6 mb 0.00 in0.0 mm 0.00 in0.0 mm 0.02 in0.5 mm
02:45 AM 41.4°F5.2°C 41.1°F5.1°C 99% Calm Calm -- 29.99 in1015.6 mb 0.00 in0.0 mm 0.00 in0.0 mm 0.02 in0.5 mm
02:44 AM 41.4°F5.2°C 41.1°F5.1°C 99% Calm Calm -- 29.99 in1015.6 mb 0.00 in0.0 mm 0.00 in0.0 mm 0.02 in0.5 mm
02:43 AM 41.4°F5.2°C 41.1°F5.1°C 99% Calm Calm -- 29.99 in1015.6 mb 0.00 in0.0 mm 0.00 in0.0 mm 0.02 in0.5 mm
02:42 AM 41.4°F5.2°C 41.1°F5.1°C 99% Calm Calm -- 29.99 in1015.6 mb 0.00 in0.0 mm 0.00 in0.0 mm 0.02 in0.5 mm
02:41 AM 41.4°F5.2°C 41.1°F5.1°C 99% Calm Calm -- 30.00 in1015.9 mb 0.00 in0.0 mm 0.00 in0.0 mm 0.02 in0.5 mm
02:40 AM 41.4°F5.2°C 41.1°F5.1°C 99% Calm Calm -- 30.00 in1015.9 mb 0.00 in0.0 mm 0.00 in0.0 mm 0.02 in0.5 mm
02:39 AM 41.4°F5.2°C 41.1°F5.1°C 99% Calm Calm -- 30.00 in1015.9 mb 0.00 in0.0 mm 0.00 in0.0 mm 0.02 in0.5 mm
02:38 AM 41.4°F5.2°C 41.1°F5.1°C 99% Calm Calm -- 30.00 in1015.9 mb 0.00 in0.0 mm 0.00 in0.0 mm 0.02 in0.5 mm
02:37 AM 41.4°F5.2°C 41.1°F5.1°C 99% Calm Calm -- 30.00 in1015.9 mb 0.00 in0.0 mm 0.00 in0.0 mm 0.02 in0.5 mm
02:36 AM 41.4°F5.2°C 41.1°F5.1°C 99% Calm Calm -- 30.00 in1015.9 mb 0.00 in0.0 mm 0.00 in0.0 mm 0.02 in0.5 mm
02:35 AM 41.4°F5.2°C 41.1°F5.1°C 99% Calm Calm -- 30.00 in1015.9 mb 0.00 in0.0 mm 0.00 in0.0 mm 0.02 in0.5 mm
02:34 AM 41.4°F5.2°C 41.1°F5.1°C 99% Calm Calm -- 30.00 in1015.9 mb 0.00 in0.0 mm 0.00 in0.0 mm 0.02 in0.5 mm
02:33 AM 41.4°F5.2°C 41.1°F5.1°C 99% Calm Calm -- 30.00 in1015.9 mb 0.00 in0.0 mm 0.00 in0.0 mm 0.02 in0.5 mm
02:32 AM 41.2°F5.1°C 40.9°F4.9°C 99% Calm Calm -- 30.00 in1015.9 mb 0.00 in0.0 mm 0.00 in0.0 mm 0.02 in0.5 mm
02:31 AM 41.2°F5.1°C 40.9°F4.9°C 99% Calm Calm -- 30.00 in1015.9 mb 0.00 in0.0 mm 0.00 in0.0 mm 0.02 in0.5 mm
02:30 AM 41.2°F5.1°C 40.9°F4.9°C 99% Calm Calm -- 30.00 in1015.9 mb 0.00 in0.0 mm 0.00 in0.0 mm 0.02 in0.5 mm
02:29 AM 41.2°F5.1°C 40.9°F4.9°C 99% Calm Calm -- 30.00 in1015.9 mb 0.00 in0.0 mm 0.00 in0.0 mm 0.02 in0.5 mm
02:28 AM 41.2°F5.1°C 40.9°F4.9°C 99% Calm Calm -- 30.00 in1015.9 mb 0.00 in0.0 mm 0.00 in0.0 mm 0.02 in0.5 mm
02:27 AM 41.2°F5.1°C 40.9°F4.9°C 99% Calm Calm -- 30.00 in1015.9 mb 0.00 in0.0 mm 0.00 in0.0 mm 0.02 in0.5 mm
02:26 AM 41.2°F5.1°C 40.9°F4.9°C 99% Calm Calm -- 30.00 in1015.9 mb 0.00 in0.0 mm 0.00 in0.0 mm 0.02 in0.5 mm
02:25 AM 41.2°F5.1°C 40.9°F4.9°C 99% Calm Calm -- 30.00 in1015.9 mb 0.01 in0.3 mm 0.00 in0.0 mm 0.02 in0.5 mm
02:24 AM 41.2°F5.1°C 40.9°F4.9°C 99% Calm Calm -- 30.00 in1015.9 mb 0.01 in0.3 mm 0.00 in0.0 mm 0.02 in0.5 mm
02:23 AM 41.2°F5.1°C 40.9°F4.9°C 99% Calm Calm -- 30.00 in1015.9 mb 0.01 in0.3 mm 0.00 in0.0 mm 0.02 in0.5 mm
02:22 AM 41.2°F5.1°C 40.9°F4.9°C 99% Calm Calm -- 30.00 in1015.9 mb 0.01 in0.3 mm 0.00 in0.0 mm 0.02 in0.5 mm
02:21 AM 41.2°F5.1°C 40.9°F4.9°C 99% Calm Calm -- 30.00 in1015.9 mb 0.01 in0.3 mm 0.00 in0.0 mm 0.02 in0.5 mm
02:20 AM 41.2°F5.1°C 40.9°F4.9°C 99% Calm Calm -- 30.00 in1015.9 mb 0.01 in0.3 mm 0.00 in0.0 mm 0.02 in0.5 mm
02:19 AM 41.2°F5.1°C 40.9°F4.9°C 99% Calm Calm -- 30.00 in1015.9 mb 0.01 in0.3 mm 0.00 in0.0 mm 0.02 in0.5 mm
02:18 AM 41.2°F5.1°C 40.9°F4.9°C 99% Calm Calm -- 30.00 in1015.9 mb 0.01 in0.3 mm 0.00 in0.0 mm 0.02 in0.5 mm
02:17 AM 41.2°F5.1°C 40.9°F4.9°C 99% Calm Calm -- 30.00 in1015.9 mb 0.01 in0.3 mm 0.00 in0.0 mm 0.02 in0.5 mm
02:16 AM 41.2°F5.1°C 40.9°F4.9°C 99% Calm Calm -- 30.00 in1015.9 mb 0.01 in0.3 mm 0.00 in0.0 mm 0.02 in0.5 mm
02:15 AM 41.2°F5.1°C 40.9°F4.9°C 99% Calm Calm -- 30.00 in1015.9 mb 0.01 in0.3 mm 0.00 in0.0 mm 0.02 in0.5 mm
02:14 AM 41.2°F5.1°C 40.9°F4.9°C 99% Calm Calm -- 30.00 in1015.9 mb 0.01 in0.3 mm 0.00 in0.0 mm 0.02 in0.5 mm
02:13 AM 41.2°F5.1°C 40.9°F4.9°C 99% Calm Calm -- 30.00 in1015.9 mb 0.01 in0.3 mm 0.00 in0.0 mm 0.02 in0.5 mm
02:12 AM 41.2°F5.1°C 40.9°F4.9°C 99% Calm Calm -- 30.00 in1015.9 mb 0.01 in0.3 mm 0.00 in0.0 mm 0.02 in0.5 mm
02:11 AM 41.2°F5.1°C 40.9°F4.9°C 99% Calm Calm -- 30.00 in1015.9 mb 0.01 in0.3 mm 0.00 in0.0 mm 0.02 in0.5 mm
02:10 AM 41.2°F5.1°C 40.9°F4.9°C 99% Calm Calm -- 30.00 in1015.9 mb 0.01 in0.3 mm 0.00 in0.0 mm 0.02 in0.5 mm
02:09 AM 41.2°F5.1°C 40.9°F4.9°C 99% Calm Calm -- 30.00 in1015.9 mb 0.01 in0.3 mm 0.00 in0.0 mm 0.02 in0.5 mm
02:08 AM 41.2°F5.1°C 40.9°F4.9°C 99% Calm Calm -- 30.00 in1015.9 mb 0.01 in0.3 mm 0.00 in0.0 mm 0.02 in0.5 mm
02:07 AM 41.2°F5.1°C 40.9°F4.9°C 99% Calm Calm -- 30.00 in1015.9 mb 0.01 in0.3 mm 0.00 in0.0 mm 0.02 in0.5 mm
02:06 AM 41.2°F5.1°C 40.9°F4.9°C 99% Calm Calm -- 30.00 in1015.9 mb 0.01 in0.3 mm 0.00 in0.0 mm 0.02 in0.5 mm
02:05 AM 41.2°F5.1°C 40.9°F4.9°C 99% Calm Calm -- 30.00 in1015.9 mb 0.01 in0.3 mm 0.00 in0.0 mm 0.02 in0.5 mm
02:04 AM 41.2°F5.1°C 40.9°F4.9°C 99% Calm Calm -- 30.00 in1015.9 mb 0.01 in0.3 mm 0.00 in0.0 mm 0.02 in0.5 mm
02:03 AM 41.2°F5.1°C 40.9°F4.9°C 99% Calm Calm -- 30.00 in1015.9 mb 0.01 in0.3 mm 0.00 in0.0 mm 0.02 in0.5 mm
02:02 AM 41.2°F5.1°C 40.9°F4.9°C 99% Calm Calm -- 30.00 in1015.9 mb 0.01 in0.3 mm 0.00 in0.0 mm 0.02 in0.5 mm
02:01 AM 41.2°F5.1°C 40.9°F4.9°C 99% Calm Calm -- 30.00 in1015.9 mb 0.01 in0.3 mm 0.00 in0.0 mm 0.02 in0.5 mm
02:00 AM 41.2°F5.1°C 40.9°F4.9°C 99% Calm Calm -- 30.00 in1015.9 mb 0.01 in0.3 mm 0.00 in0.0 mm 0.02 in0.5 mm
01:59 AM 41.2°F5.1°C 40.9°F4.9°C 99% Calm Calm -- 30.00 in1015.9 mb 0.01 in0.3 mm 0.00 in0.0 mm 0.02 in0.5 mm
01:58 AM 41.2°F5.1°C 40.9°F4.9°C 99% Calm Calm -- 30.00 in1015.9 mb 0.01 in0.3 mm 0.00 in0.0 mm 0.02 in0.5 mm
01:57 AM 41.2°F5.1°C 40.9°F4.9°C 99% Calm Calm -- 30.00 in1015.9 mb 0.01 in0.3 mm 0.00 in0.0 mm 0.02 in0.5 mm
01:56 AM 41.2°F5.1°C 40.9°F4.9°C 99% Calm Calm -- 30.00 in1015.9 mb 0.01 in0.3 mm 0.00 in0.0 mm 0.02 in0.5 mm
01:55 AM 41.2°F5.1°C 40.9°F4.9°C 99% Calm Calm -- 30.00 in1015.9 mb 0.01 in0.3 mm 0.00 in0.0 mm 0.02 in0.5 mm
01:54 AM 41.2°F5.1°C 40.9°F4.9°C 99% Calm Calm -- 30.00 in1015.9 mb 0.01 in0.3 mm 0.00 in0.0 mm 0.02 in0.5 mm
01:53 AM 41.2°F5.1°C 40.9°F4.9°C 99% Calm Calm -- 30.01 in1016.3 mb 0.01 in0.3 mm 0.00 in0.0 mm 0.02 in0.5 mm
01:52 AM 41.2°F5.1°C 40.9°F4.9°C 99% Calm Calm -- 30.01 in1016.3 mb 0.01 in0.3 mm 0.00 in0.0 mm 0.02 in0.5 mm
01:51 AM 41.2°F5.1°C 40.9°F4.9°C 99% Calm Calm -- 30.01 in1016.3 mb 0.01 in0.3 mm 0.00 in0.0 mm 0.02 in0.5 mm
01:50 AM 41.2°F5.1°C 40.9°F4.9°C 99% Calm Calm -- 30.01 in1016.3 mb 0.01 in0.3 mm 0.00 in0.0 mm 0.02 in0.5 mm
01:49 AM 41.2°F5.1°C 40.9°F4.9°C 99% Calm Calm -- 30.01 in1016.3 mb 0.01 in0.3 mm 0.00 in0.0 mm 0.02 in0.5 mm
01:48 AM 41.2°F5.1°C 40.9°F4.9°C 99% Calm Calm -- 30.01 in1016.3 mb 0.01 in0.3 mm 0.00 in0.0 mm 0.02 in0.5 mm
01:47 AM 41.2°F5.1°C 40.9°F4.9°C 99% Calm Calm -- 30.01 in1016.3 mb 0.01 in0.3 mm 0.00 in0.0 mm 0.02 in0.5 mm
01:46 AM 41.2°F5.1°C 40.9°F4.9°C 99% Calm Calm -- 30.01 in1016.3 mb 0.01 in0.3 mm 0.00 in0.0 mm 0.02 in0.5 mm
01:45 AM 41.2°F5.1°C 40.9°F4.9°C 99% Calm Calm -- 30.01 in1016.3 mb 0.01 in0.3 mm 0.00 in0.0 mm 0.02 in0.5 mm
01:44 AM 41.2°F5.1°C 40.9°F4.9°C 99% Calm Calm -- 30.01 in1016.3 mb 0.01 in0.3 mm 0.00 in0.0 mm 0.02 in0.5 mm
01:43 AM 41.2°F5.1°C 40.9°F4.9°C 99% Calm Calm -- 30.01 in1016.3 mb 0.01 in0.3 mm 0.00 in0.0 mm 0.02 in0.5 mm
01:42 AM 41.2°F5.1°C 40.9°F4.9°C 99% Calm Calm -- 30.01 in1016.3 mb 0.01 in0.3 mm 0.00 in0.0 mm 0.02 in0.5 mm
01:41 AM 41.2°F5.1°C 40.9°F4.9°C 99% Calm Calm -- 30.03 in1016.9 mb 0.01 in0.3 mm 0.00 in0.0 mm 0.02 in0.5 mm
01:40 AM 41.2°F5.1°C 40.9°F4.9°C 99% Calm Calm -- 30.03 in1016.9 mb 0.02 in0.5 mm 0.00 in0.0 mm 0.02 in0.5 mm
01:39 AM 41.2°F5.1°C 40.9°F4.9°C 99% Calm Calm -- 30.03 in1016.9 mb 0.02 in0.5 mm 0.00 in0.0 mm 0.02 in0.5 mm
01:38 AM 41.2°F5.1°C 40.9°F4.9°C 99% Calm Calm -- 30.03 in1016.9 mb 0.02 in0.5 mm 0.00 in0.0 mm 0.02 in0.5 mm
01:37 AM 41.2°F5.1°C 40.9°F4.9°C 99% Calm Calm -- 30.03 in1016.9 mb 0.02 in0.5 mm 0.00 in0.0 mm 0.02 in0.5 mm
01:36 AM 41.2°F5.1°C 40.9°F4.9°C 99% Calm Calm -- 30.03 in1016.9 mb 0.02 in0.5 mm 0.00 in0.0 mm 0.02 in0.5 mm
01:35 AM 41.2°F5.1°C 40.9°F4.9°C 99% Calm Calm -- 30.03 in1016.9 mb 0.02 in0.5 mm 0.00 in0.0 mm 0.02 in0.5 mm
01:34 AM 41.2°F5.1°C 40.9°F4.9°C 99% Calm Calm -- 30.03 in1016.9 mb 0.02 in0.5 mm 0.00 in0.0 mm 0.02 in0.5 mm
01:33 AM 41.2°F5.1°C 40.9°F4.9°C 99% Calm Calm -- 30.03 in1016.9 mb 0.02 in0.5 mm 0.00 in0.0 mm 0.02 in0.5 mm
01:32 AM 41.2°F5.1°C 40.9°F4.9°C 99% Calm Calm -- 30.03 in1016.9 mb 0.02 in0.5 mm 0.00 in0.0 mm 0.02 in0.5 mm
01:31 AM 41.2°F5.1°C 40.9°F4.9°C 99% Calm Calm -- 30.03 in1016.9 mb 0.02 in0.5 mm 0.00 in0.0 mm 0.02 in0.5 mm
01:30 AM 41.2°F5.1°C 40.9°F4.9°C 99% Calm Calm -- 30.03 in1016.9 mb 0.02 in0.5 mm 0.00 in0.0 mm 0.02 in0.5 mm
01:29 AM 41.2°F5.1°C 40.9°F4.9°C 99% Calm Calm -- 30.03 in1016.9 mb 0.02 in0.5 mm 0.00 in0.0 mm 0.02 in0.5 mm
01:28 AM 41.2°F5.1°C 40.9°F4.9°C 99% Calm Calm -- 30.03 in1016.9 mb 0.02 in0.5 mm 0.00 in0.0 mm 0.02 in0.5 mm
01:27 AM 41.2°F5.1°C 40.9°F4.9°C 99% Calm Calm -- 30.03 in1016.9 mb 0.02 in0.5 mm 0.00 in0.0 mm 0.02 in0.5 mm
01:26 AM 41.2°F5.1°C 40.9°F4.9°C 99% Calm Calm -- 30.03 in1016.9 mb 0.02 in0.5 mm 0.60 in15.2 mm 0.02 in0.5 mm
01:25 AM 41.2°F5.1°C 40.9°F4.9°C 99% Calm Calm -- 30.03 in1016.9 mb 0.01 in0.3 mm 0.00 in0.0 mm 0.01 in0.3 mm
01:24 AM 41.2°F5.1°C 40.9°F4.9°C 99% Calm Calm -- 30.03 in1016.9 mb 0.01 in0.3 mm 0.00 in0.0 mm 0.01 in0.3 mm
01:23 AM 41.2°F5.1°C 40.9°F4.9°C 99% Calm Calm -- 30.03 in1016.9 mb 0.01 in0.3 mm 0.00 in0.0 mm 0.01 in0.3 mm
01:22 AM 41.2°F5.1°C 40.9°F4.9°C 99% Calm Calm -- 30.03 in1016.9 mb 0.01 in0.3 mm 0.00 in0.0 mm 0.01 in0.3 mm
01:21 AM 41.2°F5.1°C 40.9°F4.9°C 99% Calm Calm -- 30.03 in1016.9 mb 0.01 in0.3 mm 0.00 in0.0 mm 0.01 in0.3 mm
01:20 AM 41.2°F5.1°C 40.9°F4.9°C 99% Calm Calm -- 30.03 in1016.9 mb 0.01 in0.3 mm 0.00 in0.0 mm 0.01 in0.3 mm
01:19 AM 41.2°F5.1°C 40.9°F4.9°C 99% Calm Calm -- 30.03 in1016.9 mb 0.01 in0.3 mm 0.00 in0.0 mm 0.01 in0.3 mm
01:18 AM 41.2°F5.1°C 40.9°F4.9°C 99% Calm Calm -- 30.03 in1016.9 mb 0.01 in0.3 mm 0.00 in0.0 mm 0.01 in0.3 mm
01:17 AM 41.2°F5.1°C 40.9°F4.9°C 99% Calm Calm -- 30.04 in1017.3 mb 0.01 in0.3 mm 0.00 in0.0 mm 0.01 in0.3 mm
01:16 AM 41.2°F5.1°C 40.9°F4.9°C 99% Calm Calm -- 30.04 in1017.3 mb 0.01 in0.3 mm 0.00 in0.0 mm 0.01 in0.3 mm
01:15 AM 41.2°F5.1°C 40.9°F4.9°C 99% Calm Calm -- 30.04 in1017.3 mb 0.01 in0.3 mm 0.00 in0.0 mm 0.01 in0.3 mm
01:14 AM 41.2°F5.1°C 40.9°F4.9°C 99% Calm Calm -- 30.04 in1017.3 mb 0.01 in0.3 mm 0.00 in0.0 mm 0.01 in0.3 mm
01:13 AM 41.2°F5.1°C 40.9°F4.9°C 99% Calm Calm -- 30.04 in1017.3 mb 0.01 in0.3 mm 0.00 in0.0 mm 0.01 in0.3 mm
01:12 AM 41.4°F5.2°C 41.1°F5.1°C 99% Calm Calm -- 30.04 in1017.3 mb 0.01 in0.3 mm 0.00 in0.0 mm 0.01 in0.3 mm
01:11 AM 41.4°F5.2°C 41.1°F5.1°C 99% Calm Calm -- 30.04 in1017.3 mb 0.01 in0.3 mm 0.00 in0.0 mm 0.01 in0.3 mm
01:10 AM 41.4°F5.2°C 41.1°F5.1°C 99% Calm Calm -- 30.04 in1017.3 mb 0.01 in0.3 mm 0.00 in0.0 mm 0.01 in0.3 mm
01:09 AM 41.4°F5.2°C 41.1°F5.1°C 99% Calm Calm -- 30.04 in1017.3 mb 0.01 in0.3 mm 0.00 in0.0 mm 0.01 in0.3 mm
01:08 AM 41.4°F5.2°C 41.1°F5.1°C 99% Calm Calm -- 30.04 in1017.3 mb 0.01 in0.3 mm 0.00 in0.0 mm 0.01 in0.3 mm
01:07 AM 41.4°F5.2°C 41.1°F5.1°C 99% Calm Calm -- 30.04 in1017.3 mb 0.01 in0.3 mm 0.00 in0.0 mm 0.01 in0.3 mm
01:06 AM 41.4°F5.2°C 41.1°F5.1°C 99% Calm Calm -- 30.04 in1017.3 mb 0.01 in0.3 mm 0.00 in0.0 mm 0.01 in0.3 mm
01:05 AM 41.4°F5.2°C 41.1°F5.1°C 99% Calm Calm -- 30.04 in1017.3 mb 0.01 in0.3 mm 0.00 in0.0 mm 0.01 in0.3 mm
01:04 AM 41.4°F5.2°C 41.1°F5.1°C 99% Calm Calm -- 30.04 in1017.3 mb 0.01 in0.3 mm 0.00 in0.0 mm 0.01 in0.3 mm
01:03 AM 41.4°F5.2°C 41.1°F5.1°C 99% Calm Calm -- 30.04 in1017.3 mb 0.01 in0.3 mm 0.00 in0.0 mm 0.01 in0.3 mm
01:02 AM 41.4°F5.2°C 41.1°F5.1°C 99% Calm Calm -- 30.04 in1017.3 mb 0.01 in0.3 mm 0.00 in0.0 mm 0.01 in0.3 mm
01:01 AM 41.4°F5.2°C 41.1°F5.1°C 99% Calm Calm -- 30.04 in1017.3 mb 0.01 in0.3 mm 0.00 in0.0 mm 0.01 in0.3 mm
01:00 AM 41.4°F5.2°C 41.1°F5.1°C 99% Calm Calm -- 30.04 in1017.3 mb 0.01 in0.3 mm 0.00 in0.0 mm 0.01 in0.3 mm
12:59 AM 41.4°F5.2°C 41.1°F5.1°C 99% Calm Calm -- 30.04 in1017.3 mb 0.01 in0.3 mm 0.00 in0.0 mm 0.01 in0.3 mm
12:58 AM 41.4°F5.2°C 41.1°F5.1°C 99% Calm Calm -- 30.04 in1017.3 mb 0.01 in0.3 mm 0.00 in0.0 mm 0.01 in0.3 mm
12:57 AM 41.4°F5.2°C 41.1°F5.1°C 99% Calm Calm -- 30.04 in1017.3 mb 0.01 in0.3 mm 0.00 in0.0 mm 0.01 in0.3 mm
12:56 AM 41.4°F5.2°C 41.1°F5.1°C 99% Calm Calm -- 30.04 in1017.3 mb 0.01 in0.3 mm 0.00 in0.0 mm 0.01 in0.3 mm
12:55 AM 41.4°F5.2°C 41.1°F5.1°C 99% Calm Calm -- 30.04 in1017.3 mb 0.01 in0.3 mm 0.00 in0.0 mm 0.01 in0.3 mm
12:54 AM 41.4°F5.2°C 41.1°F5.1°C 99% Calm Calm -- 30.04 in1017.3 mb 0.01 in0.3 mm 0.00 in0.0 mm 0.01 in0.3 mm
12:53 AM 41.4°F5.2°C 41.1°F5.1°C 99% Calm Calm -- 30.04 in1017.3 mb 0.01 in0.3 mm 0.00 in0.0 mm 0.01 in0.3 mm
12:52 AM 41.4°F5.2°C 41.1°F5.1°C 99% Calm Calm -- 30.04 in1017.3 mb 0.01 in0.3 mm 0.00 in0.0 mm 0.01 in0.3 mm
12:51 AM 41.4°F5.2°C 41.1°F5.1°C 99% Calm Calm -- 30.04 in1017.3 mb 0.01 in0.3 mm 0.00 in0.0 mm 0.01 in0.3 mm
12:50 AM 41.4°F5.2°C 41.1°F5.1°C 99% Calm Calm -- 30.04 in1017.3 mb 0.01 in0.3 mm 0.00 in0.0 mm 0.01 in0.3 mm
12:49 AM 41.4°F5.2°C 41.1°F5.1°C 99% Calm Calm -- 30.04 in1017.3 mb 0.01 in0.3 mm 0.00 in0.0 mm 0.01 in0.3 mm
12:48 AM 41.4°F5.2°C 41.1°F5.1°C 99% Calm Calm -- 30.04 in1017.3 mb 0.01 in0.3 mm 0.00 in0.0 mm 0.01 in0.3 mm
12:47 AM 41.4°F5.2°C 41.1°F5.1°C 99% Calm Calm -- 30.04 in1017.3 mb 0.01 in0.3 mm 0.00 in0.0 mm 0.01 in0.3 mm
12:46 AM 41.4°F5.2°C 41.1°F5.1°C 99% Calm Calm -- 30.04 in1017.3 mb 0.01 in0.3 mm 0.00 in0.0 mm 0.01 in0.3 mm
12:45 AM 41.4°F5.2°C 41.1°F5.1°C 99% Calm Calm -- 30.04 in1017.3 mb 0.01 in0.3 mm 0.00 in0.0 mm 0.01 in0.3 mm
12:44 AM 41.4°F5.2°C 41.1°F5.1°C 99% Calm Calm -- 30.04 in1017.3 mb 0.01 in0.3 mm 0.00 in0.0 mm 0.01 in0.3 mm
12:43 AM 41.4°F5.2°C 41.1°F5.1°C 99% Calm Calm -- 30.04 in1017.3 mb 0.01 in0.3 mm 0.00 in0.0 mm 0.01 in0.3 mm
12:42 AM 41.4°F5.2°C 41.1°F5.1°C 99% Calm Calm -- 30.04 in1017.3 mb 0.01 in0.3 mm 0.00 in0.0 mm 0.01 in0.3 mm
12:41 AM 41.4°F5.2°C 41.1°F5.1°C 99% Calm Calm -- 30.04 in1017.3 mb 0.01 in0.3 mm 0.60 in15.2 mm 0.01 in0.3 mm
12:40 AM 41.4°F5.2°C 41.1°F5.1°C 99% Calm Calm -- 30.04 in1017.3 mb 0.00 in0.0 mm 0.00 in0.0 mm 0.00 in0.0 mm
12:39 AM 41.4°F5.2°C 41.1°F5.1°C 99% Calm Calm -- 30.04 in1017.3 mb 0.00 in0.0 mm 0.00 in0.0 mm 0.00 in0.0 mm
12:38 AM 41.4°F5.2°C 40.8°F4.9°C 98% Calm Calm -- 30.04 in1017.3 mb 0.00 in0.0 mm 0.00 in0.0 mm 0.00 in0.0 mm
12:37 AM 41.4°F5.2°C 40.8°F4.9°C 98% Calm Calm -- 30.04 in1017.3 mb 0.00 in0.0 mm 0.00 in0.0 mm 0.00 in0.0 mm
12:36 AM 41.4°F5.2°C 40.8°F4.9°C 98% Calm Calm -- 30.04 in1017.3 mb 0.00 in0.0 mm 0.00 in0.0 mm 0.00 in0.0 mm
12:35 AM 41.4°F5.2°C 40.8°F4.9°C 98% Calm Calm -- 30.04 in1017.3 mb 0.00 in0.0 mm 0.00 in0.0 mm 0.00 in0.0 mm
12:34 AM 41.4°F5.2°C 40.8°F4.9°C 98% Calm Calm -- 30.04 in1017.3 mb 0.00 in0.0 mm 0.00 in0.0 mm 0.00 in0.0 mm
12:33 AM 41.4°F5.2°C 40.8°F4.9°C 98% Calm Calm -- 30.04 in1017.3 mb 0.00 in0.0 mm 0.00 in0.0 mm 0.00 in0.0 mm
12:32 AM 41.4°F5.2°C 40.8°F4.9°C 98% Calm Calm -- 30.04 in1017.3 mb 0.00 in0.0 mm 0.00 in0.0 mm 0.00 in0.0 mm
12:31 AM 41.5°F5.3°C 41.0°F5.0°C 98% Calm Calm -- 30.04 in1017.3 mb 0.00 in0.0 mm 0.00 in0.0 mm 0.00 in0.0 mm
12:30 AM 41.5°F5.3°C 40.8°F4.9°C 97% Calm Calm -- 30.04 in1017.3 mb 0.00 in0.0 mm 0.00 in0.0 mm 0.00 in0.0 mm
12:29 AM 41.5°F5.3°C 40.8°F4.9°C 97% Calm Calm -- 30.05 in1017.6 mb 0.00 in0.0 mm 0.00 in0.0 mm 0.00 in0.0 mm
12:28 AM 41.5°F5.3°C 40.8°F4.9°C 97% Calm Calm -- 30.05 in1017.6 mb 0.00 in0.0 mm 0.00 in0.0 mm 0.00 in0.0 mm
12:27 AM 41.5°F5.3°C 40.8°F4.9°C 97% Calm Calm -- 30.05 in1017.6 mb 0.00 in0.0 mm 0.00 in0.0 mm 0.00 in0.0 mm
12:26 AM 41.5°F5.3°C 40.8°F4.9°C 97% Calm Calm -- 30.05 in1017.6 mb 0.00 in0.0 mm 0.00 in0.0 mm 0.00 in0.0 mm
12:25 AM 41.5°F5.3°C 40.8°F4.9°C 97% Calm Calm -- 30.05 in1017.6 mb 0.00 in0.0 mm 0.00 in0.0 mm 0.00 in0.0 mm
12:24 AM 41.5°F5.3°C 40.5°F4.7°C 96% Calm Calm -- 30.05 in1017.6 mb 0.00 in0.0 mm 0.00 in0.0 mm 0.00 in0.0 mm
12:23 AM 41.5°F5.3°C 40.5°F4.7°C 96% Calm Calm -- 30.05 in1017.6 mb 0.00 in0.0 mm 0.00 in0.0 mm 0.00 in0.0 mm
12:22 AM 41.5°F5.3°C 40.5°F4.7°C 96% Calm Calm -- 30.05 in1017.6 mb 0.00 in0.0 mm 0.00 in0.0 mm 0.00 in0.0 mm
12:21 AM 41.5°F5.3°C 40.5°F4.7°C 96% Calm Calm -- 30.05 in1017.6 mb 0.00 in0.0 mm 0.00 in0.0 mm 0.00 in0.0 mm
12:20 AM 41.5°F5.3°C 40.5°F4.7°C 96% Calm Calm -- 30.05 in1017.6 mb 0.00 in0.0 mm 0.00 in0.0 mm 0.00 in0.0 mm
12:19 AM 41.5°F5.3°C 40.5°F4.7°C 96% Calm Calm -- 30.05 in1017.6 mb 0.00 in0.0 mm 0.00 in0.0 mm 0.00 in0.0 mm
12:18 AM 41.5°F5.3°C 40.5°F4.7°C 96% Calm Calm -- 30.05 in1017.6 mb 0.00 in0.0 mm 0.00 in0.0 mm 0.00 in0.0 mm
12:17 AM 41.5°F5.3°C 40.5°F4.7°C 96% Calm Calm -- 30.06 in1017.9 mb 0.00 in0.0 mm 0.00 in0.0 mm 0.00 in0.0 mm
12:16 AM 41.5°F5.3°C 40.5°F4.7°C 96% Calm Calm -- 30.06 in1017.9 mb 0.00 in0.0 mm 0.00 in0.0 mm 0.00 in0.0 mm
12:15 AM 41.5°F5.3°C 40.5°F4.7°C 96% Calm Calm -- 30.06 in1017.9 mb 0.00 in0.0 mm 0.00 in0.0 mm 0.00 in0.0 mm
12:14 AM 41.7°F5.4°C 40.4°F4.7°C 95% Calm Calm -- 30.06 in1017.9 mb 0.00 in0.0 mm 0.00 in0.0 mm 0.00 in0.0 mm
12:13 AM 41.7°F5.4°C 40.4°F4.7°C 95% Calm Calm -- 30.06 in1017.9 mb 0.00 in0.0 mm 0.00 in0.0 mm 0.00 in0.0 mm
12:12 AM 41.7°F5.4°C 40.4°F4.7°C 95% Calm Calm -- 30.06 in1017.9 mb 0.00 in0.0 mm 0.00 in0.0 mm 0.00 in0.0 mm
12:11 AM 41.7°F5.4°C 40.4°F4.7°C 95% Calm Calm -- 30.06 in1017.9 mb 0.00 in0.0 mm 0.00 in0.0 mm 0.00 in0.0 mm
12:10 AM 41.7°F5.4°C 40.4°F4.7°C 95% Calm Calm -- 30.06 in1017.9 mb 0.00 in0.0 mm 0.00 in0.0 mm 0.00 in0.0 mm
12:09 AM 41.9°F5.5°C 40.6°F4.8°C 95% Calm Calm -- 30.06 in1017.9 mb 0.00 in0.0 mm 0.00 in0.0 mm 0.00 in0.0 mm
12:08 AM 41.9°F5.5°C 40.6°F4.8°C 95% Calm Calm -- 30.06 in1017.9 mb 0.00 in0.0 mm 0.00 in0.0 mm 0.00 in0.0 mm
12:07 AM 41.9°F5.5°C 40.6°F4.8°C 95% Calm Calm -- 30.06 in1017.9 mb 0.00 in0.0 mm 0.00 in0.0 mm 0.00 in0.0 mm
12:06 AM 41.9°F5.5°C 40.6°F4.8°C 95% Calm Calm -- 30.06 in1017.9 mb 0.00 in0.0 mm 0.00 in0.0 mm 0.00 in0.0 mm
12:05 AM 41.9°F5.5°C 40.6°F4.8°C 95% Calm Calm -- 30.05 in1017.6 mb 0.00 in0.0 mm 0.00 in0.0 mm 0.00 in0.0 mm
12:04 AM 41.9°F5.5°C 40.8°F4.9°C 96% Calm Calm -- 30.05 in1017.6 mb 0.00 in0.0 mm 0.00 in0.0 mm 0.00 in0.0 mm
12:03 AM 41.9°F5.5°C 40.8°F4.9°C 96% Calm Calm -- 30.05 in1017.6 mb 0.00 in0.0 mm 0.00 in0.0 mm 0.00 in0.0 mm
12:02 AM 41.9°F5.5°C 40.8°F4.9°C 96% Calm Calm -- 30.05 in1017.6 mb 0.00 in0.0 mm 0.00 in0.0 mm 0.00 in0.0 mm
12:01 AM 41.9°F5.5°C 40.8°F4.9°C 96% Calm Calm -- 30.05 in1017.6 mb 0.00 in0.0 mm 0.00 in0.0 mm 0.00 in0.0 mm
12:00 AM 41.9°F5.5°C 40.8°F4.9°C 96% Calm Calm -- 30.05 in1017.6 mb 0.00 in0.0 mm 0.00 in0.0 mm 0.00 in0.0 mm